<?xml version="1.0" encoding="UTF-8" standalone="no" ?>
<gpx xmlns="http://www.topografix.com/GPX/1/1" xmlns:xsi="http://www.w3.org/2001/XMLSchema-instance" xsi:schemaLocation="http://www.topografix.com/GPX/1/1 http://www.topografix.com/GPX/1/1/gpx.xsd" version="1.1" creator="VisuGPX - https://www.visugpx.com">
  <metadata>
    <name>troglodyte 60 km raccourci</name>
  </metadata>
  <trk>
    <name><![CDATA[troglodyte 60 km raccourci_1]]></name>
    <trkseg>
      <trkpt lat="49.33824" lon="0.96281">
        <ele>94</ele>
        <time>2019-06-10T18:43:57Z</time>
      </trkpt>
      <trkpt lat="49.33824" lon="0.96281">
        <ele>94</ele>
        <time>2019-06-10T18:43:57Z</time>
      </trkpt>
      <trkpt lat="49.33825" lon="0.96263">
        <ele>92</ele>
        <time>2019-06-10T18:44:00Z</time>
      </trkpt>
      <trkpt lat="49.33853" lon="0.96218">
        <ele>89</ele>
        <time>2019-06-10T18:44:10Z</time>
      </trkpt>
      <trkpt lat="49.3385" lon="0.96216">
        <ele>89</ele>
        <time>2019-06-10T18:44:10Z</time>
      </trkpt>
      <trkpt lat="49.33829" lon="0.96232">
        <ele>89</ele>
        <time>2019-06-10T18:44:16Z</time>
      </trkpt>
      <trkpt lat="49.33822" lon="0.96244">
        <ele>90</ele>
        <time>2019-06-10T18:44:18Z</time>
      </trkpt>
      <trkpt lat="49.3379" lon="0.96276">
        <ele>94</ele>
        <time>2019-06-10T18:44:27Z</time>
      </trkpt>
      <trkpt lat="49.33767" lon="0.96283">
        <ele>95</ele>
        <time>2019-06-10T18:44:33Z</time>
      </trkpt>
      <trkpt lat="49.33718" lon="0.96291">
        <ele>94</ele>
        <time>2019-06-10T18:44:44Z</time>
      </trkpt>
      <trkpt lat="49.33676" lon="0.96308">
        <ele>92</ele>
        <time>2019-06-10T18:44:54Z</time>
      </trkpt>
      <trkpt lat="49.33652" lon="0.96322">
        <ele>91</ele>
        <time>2019-06-10T18:45:00Z</time>
      </trkpt>
      <trkpt lat="49.33616" lon="0.96376">
        <ele>85</ele>
        <time>2019-06-10T18:45:12Z</time>
      </trkpt>
      <trkpt lat="49.33615" lon="0.9641">
        <ele>84</ele>
        <time>2019-06-10T18:45:17Z</time>
      </trkpt>
      <trkpt lat="49.3362" lon="0.96424">
        <ele>84</ele>
        <time>2019-06-10T18:45:20Z</time>
      </trkpt>
      <trkpt lat="49.3362" lon="0.96468">
        <ele>83</ele>
        <time>2019-06-10T18:45:26Z</time>
      </trkpt>
      <trkpt lat="49.33635" lon="0.96537">
        <ele>84</ele>
        <time>2019-06-10T18:45:38Z</time>
      </trkpt>
      <trkpt lat="49.33633" lon="0.96561">
        <ele>83</ele>
        <time>2019-06-10T18:45:41Z</time>
      </trkpt>
      <trkpt lat="49.33627" lon="0.96588">
        <ele>81</ele>
        <time>2019-06-10T18:45:46Z</time>
      </trkpt>
      <trkpt lat="49.33634" lon="0.96637">
        <ele>83</ele>
        <time>2019-06-10T18:45:53Z</time>
      </trkpt>
      <trkpt lat="49.33629" lon="0.96696">
        <ele>81</ele>
        <time>2019-06-10T18:46:02Z</time>
      </trkpt>
      <trkpt lat="49.33636" lon="0.96738">
        <ele>83</ele>
        <time>2019-06-10T18:46:09Z</time>
      </trkpt>
      <trkpt lat="49.33643" lon="0.96752">
        <ele>85</ele>
        <time>2019-06-10T18:46:12Z</time>
      </trkpt>
      <trkpt lat="49.33644" lon="0.9677">
        <ele>85</ele>
        <time>2019-06-10T18:46:14Z</time>
      </trkpt>
      <trkpt lat="49.33632" lon="0.96785">
        <ele>81</ele>
        <time>2019-06-10T18:46:18Z</time>
      </trkpt>
      <trkpt lat="49.33629" lon="0.96806">
        <ele>80</ele>
        <time>2019-06-10T18:46:21Z</time>
      </trkpt>
      <trkpt lat="49.3363" lon="0.96855">
        <ele>81</ele>
        <time>2019-06-10T18:46:29Z</time>
      </trkpt>
      <trkpt lat="49.33622" lon="0.96923">
        <ele>80</ele>
        <time>2019-06-10T18:46:39Z</time>
      </trkpt>
      <trkpt lat="49.33603" lon="0.96967">
        <ele>76</ele>
        <time>2019-06-10T18:46:47Z</time>
      </trkpt>
      <trkpt lat="49.33598" lon="0.96999">
        <ele>76</ele>
        <time>2019-06-10T18:46:52Z</time>
      </trkpt>
      <trkpt lat="49.33582" lon="0.97059">
        <ele>73</ele>
        <time>2019-06-10T18:47:02Z</time>
      </trkpt>
      <trkpt lat="49.33576" lon="0.97103">
        <ele>74</ele>
        <time>2019-06-10T18:47:09Z</time>
      </trkpt>
      <trkpt lat="49.33561" lon="0.97131">
        <ele>72</ele>
        <time>2019-06-10T18:47:14Z</time>
      </trkpt>
      <trkpt lat="49.33551" lon="0.97158">
        <ele>72</ele>
        <time>2019-06-10T18:47:19Z</time>
      </trkpt>
      <trkpt lat="49.33513" lon="0.97231">
        <ele>69</ele>
        <time>2019-06-10T18:47:33Z</time>
      </trkpt>
      <trkpt lat="49.3348" lon="0.97255">
        <ele>64</ele>
        <time>2019-06-10T18:47:42Z</time>
      </trkpt>
      <trkpt lat="49.33445" lon="0.97286">
        <ele>59</ele>
        <time>2019-06-10T18:47:51Z</time>
      </trkpt>
      <trkpt lat="49.33442" lon="0.97292">
        <ele>59</ele>
        <time>2019-06-10T18:47:52Z</time>
      </trkpt>
      <trkpt lat="49.33443" lon="0.97296">
        <ele>59</ele>
        <time>2019-06-10T18:47:53Z</time>
      </trkpt>
      <trkpt lat="49.33452" lon="0.97302">
        <ele>61</ele>
        <time>2019-06-10T18:47:55Z</time>
      </trkpt>
      <trkpt lat="49.33457" lon="0.97309">
        <ele>62</ele>
        <time>2019-06-10T18:47:57Z</time>
      </trkpt>
      <trkpt lat="49.33459" lon="0.97341">
        <ele>64</ele>
        <time>2019-06-10T18:48:02Z</time>
      </trkpt>
      <trkpt lat="49.33478" lon="0.97369">
        <ele>66</ele>
        <time>2019-06-10T18:48:08Z</time>
      </trkpt>
      <trkpt lat="49.33483" lon="0.97374">
        <ele>67</ele>
        <time>2019-06-10T18:48:09Z</time>
      </trkpt>
      <trkpt lat="49.33491" lon="0.97371">
        <ele>68</ele>
        <time>2019-06-10T18:48:11Z</time>
      </trkpt>
      <trkpt lat="49.33494" lon="0.97374">
        <ele>69</ele>
        <time>2019-06-10T18:48:12Z</time>
      </trkpt>
      <trkpt lat="49.33499" lon="0.97387">
        <ele>69</ele>
        <time>2019-06-10T18:48:14Z</time>
      </trkpt>
      <trkpt lat="49.33509" lon="0.97402">
        <ele>71</ele>
        <time>2019-06-10T18:48:18Z</time>
      </trkpt>
      <trkpt lat="49.3354" lon="0.97431">
        <ele>78</ele>
        <time>2019-06-10T18:48:26Z</time>
      </trkpt>
      <trkpt lat="49.33578" lon="0.97456">
        <ele>84</ele>
        <time>2019-06-10T18:48:36Z</time>
      </trkpt>
      <trkpt lat="49.336" lon="0.97465">
        <ele>88</ele>
        <time>2019-06-10T18:48:41Z</time>
      </trkpt>
      <trkpt lat="49.3361" lon="0.97474">
        <ele>90</ele>
        <time>2019-06-10T18:48:44Z</time>
      </trkpt>
      <trkpt lat="49.33618" lon="0.97507">
        <ele>90</ele>
        <time>2019-06-10T18:48:49Z</time>
      </trkpt>
      <trkpt lat="49.3361" lon="0.97524">
        <ele>89</ele>
        <time>2019-06-10T18:48:52Z</time>
      </trkpt>
      <trkpt lat="49.3361" lon="0.97529">
        <ele>89</ele>
        <time>2019-06-10T18:48:53Z</time>
      </trkpt>
      <trkpt lat="49.33612" lon="0.97538">
        <ele>90</ele>
        <time>2019-06-10T18:48:55Z</time>
      </trkpt>
      <trkpt lat="49.33624" lon="0.97558">
        <ele>93</ele>
        <time>2019-06-10T18:48:59Z</time>
      </trkpt>
      <trkpt lat="49.33623" lon="0.97575">
        <ele>94</ele>
        <time>2019-06-10T18:49:01Z</time>
      </trkpt>
      <trkpt lat="49.33615" lon="0.97584">
        <ele>93</ele>
        <time>2019-06-10T18:49:04Z</time>
      </trkpt>
      <trkpt lat="49.33585" lon="0.97575">
        <ele>88</ele>
        <time>2019-06-10T18:49:11Z</time>
      </trkpt>
      <trkpt lat="49.33575" lon="0.97565">
        <ele>86</ele>
        <time>2019-06-10T18:49:14Z</time>
      </trkpt>
      <trkpt lat="49.33532" lon="0.97564">
        <ele>80</ele>
        <time>2019-06-10T18:49:24Z</time>
      </trkpt>
      <trkpt lat="49.33525" lon="0.9756">
        <ele>79</ele>
        <time>2019-06-10T18:49:25Z</time>
      </trkpt>
      <trkpt lat="49.33505" lon="0.97537">
        <ele>74</ele>
        <time>2019-06-10T18:49:31Z</time>
      </trkpt>
      <trkpt lat="49.33488" lon="0.97537">
        <ele>72</ele>
        <time>2019-06-10T18:49:35Z</time>
      </trkpt>
      <trkpt lat="49.33424" lon="0.97585">
        <ele>69</ele>
        <time>2019-06-10T18:49:52Z</time>
      </trkpt>
      <trkpt lat="49.33412" lon="0.97598">
        <ele>68</ele>
        <time>2019-06-10T18:49:55Z</time>
      </trkpt>
      <trkpt lat="49.33405" lon="0.97626">
        <ele>67</ele>
        <time>2019-06-10T18:50:00Z</time>
      </trkpt>
      <trkpt lat="49.33408" lon="0.97642">
        <ele>68</ele>
        <time>2019-06-10T18:50:02Z</time>
      </trkpt>
      <trkpt lat="49.33418" lon="0.97667">
        <ele>70</ele>
        <time>2019-06-10T18:50:07Z</time>
      </trkpt>
      <trkpt lat="49.33426" lon="0.97707">
        <ele>73</ele>
        <time>2019-06-10T18:50:13Z</time>
      </trkpt>
      <trkpt lat="49.33427" lon="0.97755">
        <ele>76</ele>
        <time>2019-06-10T18:50:21Z</time>
      </trkpt>
      <trkpt lat="49.33423" lon="0.97835">
        <ele>76</ele>
        <time>2019-06-10T18:50:33Z</time>
      </trkpt>
      <trkpt lat="49.33415" lon="0.97857">
        <ele>76</ele>
        <time>2019-06-10T18:50:37Z</time>
      </trkpt>
      <trkpt lat="49.33396" lon="0.97894">
        <ele>75</ele>
        <time>2019-06-10T18:50:44Z</time>
      </trkpt>
      <trkpt lat="49.33378" lon="0.97917">
        <ele>73</ele>
        <time>2019-06-10T18:50:49Z</time>
      </trkpt>
      <trkpt lat="49.3336" lon="0.97967">
        <ele>73</ele>
        <time>2019-06-10T18:50:58Z</time>
      </trkpt>
      <trkpt lat="49.33357" lon="0.98001">
        <ele>74</ele>
        <time>2019-06-10T18:51:03Z</time>
      </trkpt>
      <trkpt lat="49.33362" lon="0.98032">
        <ele>78</ele>
        <time>2019-06-10T18:51:08Z</time>
      </trkpt>
      <trkpt lat="49.33363" lon="0.98057">
        <ele>80</ele>
        <time>2019-06-10T18:51:12Z</time>
      </trkpt>
      <trkpt lat="49.33362" lon="0.98088">
        <ele>81</ele>
        <time>2019-06-10T18:51:17Z</time>
      </trkpt>
      <trkpt lat="49.33358" lon="0.98109">
        <ele>82</ele>
        <time>2019-06-10T18:51:20Z</time>
      </trkpt>
      <trkpt lat="49.33361" lon="0.98151">
        <ele>84</ele>
        <time>2019-06-10T18:51:26Z</time>
      </trkpt>
      <trkpt lat="49.3336" lon="0.9818">
        <ele>85</ele>
        <time>2019-06-10T18:51:31Z</time>
      </trkpt>
      <trkpt lat="49.33351" lon="0.98187">
        <ele>84</ele>
        <time>2019-06-10T18:51:33Z</time>
      </trkpt>
      <trkpt lat="49.33341" lon="0.98144">
        <ele>80</ele>
        <time>2019-06-10T18:51:40Z</time>
      </trkpt>
      <trkpt lat="49.33336" lon="0.98103">
        <ele>76</ele>
        <time>2019-06-10T18:51:46Z</time>
      </trkpt>
      <trkpt lat="49.33329" lon="0.98085">
        <ele>75</ele>
        <time>2019-06-10T18:51:50Z</time>
      </trkpt>
      <trkpt lat="49.33309" lon="0.98067">
        <ele>76</ele>
        <time>2019-06-10T18:51:55Z</time>
      </trkpt>
      <trkpt lat="49.33303" lon="0.98048">
        <ele>74</ele>
        <time>2019-06-10T18:51:58Z</time>
      </trkpt>
      <trkpt lat="49.33265" lon="0.9797">
        <ele>70</ele>
        <time>2019-06-10T18:52:13Z</time>
      </trkpt>
      <trkpt lat="49.33243" lon="0.97942">
        <ele>69</ele>
        <time>2019-06-10T18:52:20Z</time>
      </trkpt>
      <trkpt lat="49.33221" lon="0.97904">
        <ele>66</ele>
        <time>2019-06-10T18:52:27Z</time>
      </trkpt>
      <trkpt lat="49.33187" lon="0.97862">
        <ele>63</ele>
        <time>2019-06-10T18:52:38Z</time>
      </trkpt>
      <trkpt lat="49.33173" lon="0.97853">
        <ele>63</ele>
        <time>2019-06-10T18:52:41Z</time>
      </trkpt>
      <trkpt lat="49.33162" lon="0.97848">
        <ele>63</ele>
        <time>2019-06-10T18:52:44Z</time>
      </trkpt>
      <trkpt lat="49.33153" lon="0.97848">
        <ele>63</ele>
        <time>2019-06-10T18:52:46Z</time>
      </trkpt>
      <trkpt lat="49.33143" lon="0.97842">
        <ele>62</ele>
        <time>2019-06-10T18:52:48Z</time>
      </trkpt>
      <trkpt lat="49.33128" lon="0.97852">
        <ele>64</ele>
        <time>2019-06-10T18:52:52Z</time>
      </trkpt>
      <trkpt lat="49.33105" lon="0.97841">
        <ele>62</ele>
        <time>2019-06-10T18:52:58Z</time>
      </trkpt>
      <trkpt lat="49.33091" lon="0.97844">
        <ele>63</ele>
        <time>2019-06-10T18:53:01Z</time>
      </trkpt>
      <trkpt lat="49.33077" lon="0.97855">
        <ele>63</ele>
        <time>2019-06-10T18:53:05Z</time>
      </trkpt>
      <trkpt lat="49.3306" lon="0.9786">
        <ele>61</ele>
        <time>2019-06-10T18:53:09Z</time>
      </trkpt>
      <trkpt lat="49.3305" lon="0.97878">
        <ele>61</ele>
        <time>2019-06-10T18:53:13Z</time>
      </trkpt>
      <trkpt lat="49.33044" lon="0.97908">
        <ele>64</ele>
        <time>2019-06-10T18:53:17Z</time>
      </trkpt>
      <trkpt lat="49.33026" lon="0.97934">
        <ele>63</ele>
        <time>2019-06-10T18:53:23Z</time>
      </trkpt>
      <trkpt lat="49.33024" lon="0.97984">
        <ele>70</ele>
        <time>2019-06-10T18:53:31Z</time>
      </trkpt>
      <trkpt lat="49.3302" lon="0.98009">
        <ele>72</ele>
        <time>2019-06-10T18:53:35Z</time>
      </trkpt>
      <trkpt lat="49.33013" lon="0.9802">
        <ele>72</ele>
        <time>2019-06-10T18:53:37Z</time>
      </trkpt>
      <trkpt lat="49.32994" lon="0.98073">
        <ele>74</ele>
        <time>2019-06-10T18:53:46Z</time>
      </trkpt>
      <trkpt lat="49.32976" lon="0.98137">
        <ele>83</ele>
        <time>2019-06-10T18:53:57Z</time>
      </trkpt>
      <trkpt lat="49.32974" lon="0.98159">
        <ele>87</ele>
        <time>2019-06-10T18:54:00Z</time>
      </trkpt>
      <trkpt lat="49.32963" lon="0.98189">
        <ele>90</ele>
        <time>2019-06-10T18:54:05Z</time>
      </trkpt>
      <trkpt lat="49.32955" lon="0.98187">
        <ele>89</ele>
        <time>2019-06-10T18:54:07Z</time>
      </trkpt>
      <trkpt lat="49.32951" lon="0.98182">
        <ele>88</ele>
        <time>2019-06-10T18:54:08Z</time>
      </trkpt>
      <trkpt lat="49.32947" lon="0.98173">
        <ele>87</ele>
        <time>2019-06-10T18:54:10Z</time>
      </trkpt>
      <trkpt lat="49.32941" lon="0.98134">
        <ele>81</ele>
        <time>2019-06-10T18:54:16Z</time>
      </trkpt>
      <trkpt lat="49.32942" lon="0.98113">
        <ele>78</ele>
        <time>2019-06-10T18:54:19Z</time>
      </trkpt>
      <trkpt lat="49.32946" lon="0.98098">
        <ele>76</ele>
        <time>2019-06-10T18:54:22Z</time>
      </trkpt>
      <trkpt lat="49.32946" lon="0.9807">
        <ele>72</ele>
        <time>2019-06-10T18:54:26Z</time>
      </trkpt>
      <trkpt lat="49.32941" lon="0.98054">
        <ele>70</ele>
        <time>2019-06-10T18:54:29Z</time>
      </trkpt>
      <trkpt lat="49.32941" lon="0.98026">
        <ele>67</ele>
        <time>2019-06-10T18:54:33Z</time>
      </trkpt>
      <trkpt lat="49.32936" lon="0.98008">
        <ele>65</ele>
        <time>2019-06-10T18:54:36Z</time>
      </trkpt>
      <trkpt lat="49.32931" lon="0.9797">
        <ele>62</ele>
        <time>2019-06-10T18:54:42Z</time>
      </trkpt>
      <trkpt lat="49.32928" lon="0.97966">
        <ele>62</ele>
        <time>2019-06-10T18:54:43Z</time>
      </trkpt>
      <trkpt lat="49.32925" lon="0.97968">
        <ele>62</ele>
        <time>2019-06-10T18:54:44Z</time>
      </trkpt>
      <trkpt lat="49.32902" lon="0.97962">
        <ele>60</ele>
        <time>2019-06-10T18:54:49Z</time>
      </trkpt>
      <trkpt lat="49.32904" lon="0.97956">
        <ele>60</ele>
        <time>2019-06-10T18:54:50Z</time>
      </trkpt>
      <trkpt lat="49.32903" lon="0.97945">
        <ele>59</ele>
        <time>2019-06-10T18:54:52Z</time>
      </trkpt>
      <trkpt lat="49.32909" lon="0.97932">
        <ele>60</ele>
        <time>2019-06-10T18:54:54Z</time>
      </trkpt>
      <trkpt lat="49.32909" lon="0.97901">
        <ele>58</ele>
        <time>2019-06-10T18:54:59Z</time>
      </trkpt>
      <trkpt lat="49.32915" lon="0.97888">
        <ele>58</ele>
        <time>2019-06-10T18:55:01Z</time>
      </trkpt>
      <trkpt lat="49.32916" lon="0.97874">
        <ele>57</ele>
        <time>2019-06-10T18:55:04Z</time>
      </trkpt>
      <trkpt lat="49.32911" lon="0.97839">
        <ele>55</ele>
        <time>2019-06-10T18:55:09Z</time>
      </trkpt>
      <trkpt lat="49.32912" lon="0.97813">
        <ele>53</ele>
        <time>2019-06-10T18:55:13Z</time>
      </trkpt>
      <trkpt lat="49.3291" lon="0.97802">
        <ele>52</ele>
        <time>2019-06-10T18:55:15Z</time>
      </trkpt>
      <trkpt lat="49.32898" lon="0.97778">
        <ele>49</ele>
        <time>2019-06-10T18:55:19Z</time>
      </trkpt>
      <trkpt lat="49.32905" lon="0.97765">
        <ele>49</ele>
        <time>2019-06-10T18:55:22Z</time>
      </trkpt>
      <trkpt lat="49.32908" lon="0.97763">
        <ele>49</ele>
        <time>2019-06-10T18:55:23Z</time>
      </trkpt>
      <trkpt lat="49.32917" lon="0.97764">
        <ele>49</ele>
        <time>2019-06-10T18:55:25Z</time>
      </trkpt>
      <trkpt lat="49.3292" lon="0.97762">
        <ele>49</ele>
        <time>2019-06-10T18:55:26Z</time>
      </trkpt>
      <trkpt lat="49.3292" lon="0.97759">
        <ele>49</ele>
        <time>2019-06-10T18:55:26Z</time>
      </trkpt>
      <trkpt lat="49.32895" lon="0.97698">
        <ele>44</ele>
        <time>2019-06-10T18:55:37Z</time>
      </trkpt>
      <trkpt lat="49.32877" lon="0.97665">
        <ele>43</ele>
        <time>2019-06-10T18:55:43Z</time>
      </trkpt>
      <trkpt lat="49.32871" lon="0.97659">
        <ele>43</ele>
        <time>2019-06-10T18:55:45Z</time>
      </trkpt>
      <trkpt lat="49.3286" lon="0.9764">
        <ele>43</ele>
        <time>2019-06-10T18:55:49Z</time>
      </trkpt>
      <trkpt lat="49.32848" lon="0.97604">
        <ele>42</ele>
        <time>2019-06-10T18:55:55Z</time>
      </trkpt>
      <trkpt lat="49.32832" lon="0.97539">
        <ele>40</ele>
        <time>2019-06-10T18:56:06Z</time>
      </trkpt>
      <trkpt lat="49.32829" lon="0.97531">
        <ele>40</ele>
        <time>2019-06-10T18:56:07Z</time>
      </trkpt>
      <trkpt lat="49.32812" lon="0.97506">
        <ele>39</ele>
        <time>2019-06-10T18:56:13Z</time>
      </trkpt>
      <trkpt lat="49.32803" lon="0.97467">
        <ele>36</ele>
        <time>2019-06-10T18:56:19Z</time>
      </trkpt>
      <trkpt lat="49.32792" lon="0.97455">
        <ele>36</ele>
        <time>2019-06-10T18:56:22Z</time>
      </trkpt>
      <trkpt lat="49.3278" lon="0.97448">
        <ele>36</ele>
        <time>2019-06-10T18:56:25Z</time>
      </trkpt>
      <trkpt lat="49.32773" lon="0.97465">
        <ele>37</ele>
        <time>2019-06-10T18:56:28Z</time>
      </trkpt>
      <trkpt lat="49.32766" lon="0.97467">
        <ele>38</ele>
        <time>2019-06-10T18:56:30Z</time>
      </trkpt>
      <trkpt lat="49.3276" lon="0.97472">
        <ele>38</ele>
        <time>2019-06-10T18:56:31Z</time>
      </trkpt>
      <trkpt lat="49.32761" lon="0.9748">
        <ele>39</ele>
        <time>2019-06-10T18:56:33Z</time>
      </trkpt>
      <trkpt lat="49.32758" lon="0.97488">
        <ele>39</ele>
        <time>2019-06-10T18:56:34Z</time>
      </trkpt>
      <trkpt lat="49.32757" lon="0.97516">
        <ele>40</ele>
        <time>2019-06-10T18:56:38Z</time>
      </trkpt>
      <trkpt lat="49.32761" lon="0.97538">
        <ele>40</ele>
        <time>2019-06-10T18:56:42Z</time>
      </trkpt>
      <trkpt lat="49.32759" lon="0.97556">
        <ele>41</ele>
        <time>2019-06-10T18:56:45Z</time>
      </trkpt>
      <trkpt lat="49.32763" lon="0.97589">
        <ele>41</ele>
        <time>2019-06-10T18:56:50Z</time>
      </trkpt>
      <trkpt lat="49.32773" lon="0.97614">
        <ele>40</ele>
        <time>2019-06-10T18:56:54Z</time>
      </trkpt>
      <trkpt lat="49.32774" lon="0.97624">
        <ele>40</ele>
        <time>2019-06-10T18:56:56Z</time>
      </trkpt>
      <trkpt lat="49.32794" lon="0.97664">
        <ele>41</ele>
        <time>2019-06-10T18:57:03Z</time>
      </trkpt>
      <trkpt lat="49.32806" lon="0.97682">
        <ele>43</ele>
        <time>2019-06-10T18:57:07Z</time>
      </trkpt>
      <trkpt lat="49.32826" lon="0.97734">
        <ele>44</ele>
        <time>2019-06-10T18:57:16Z</time>
      </trkpt>
      <trkpt lat="49.32828" lon="0.97735">
        <ele>44</ele>
        <time>2019-06-10T18:57:17Z</time>
      </trkpt>
      <trkpt lat="49.32835" lon="0.97719">
        <ele>46</ele>
        <time>2019-06-10T18:57:20Z</time>
      </trkpt>
      <trkpt lat="49.32848" lon="0.97712">
        <ele>46</ele>
        <time>2019-06-10T18:57:23Z</time>
      </trkpt>
      <trkpt lat="49.32858" lon="0.97718">
        <ele>46</ele>
        <time>2019-06-10T18:57:26Z</time>
      </trkpt>
      <trkpt lat="49.32874" lon="0.97766">
        <ele>47</ele>
        <time>2019-06-10T18:57:34Z</time>
      </trkpt>
      <trkpt lat="49.32877" lon="0.97792">
        <ele>48</ele>
        <time>2019-06-10T18:57:38Z</time>
      </trkpt>
      <trkpt lat="49.32878" lon="0.97813">
        <ele>49</ele>
        <time>2019-06-10T18:57:41Z</time>
      </trkpt>
      <trkpt lat="49.32868" lon="0.97851">
        <ele>49</ele>
        <time>2019-06-10T18:57:47Z</time>
      </trkpt>
      <trkpt lat="49.32869" lon="0.97878">
        <ele>50</ele>
        <time>2019-06-10T18:57:51Z</time>
      </trkpt>
      <trkpt lat="49.32859" lon="0.9792">
        <ele>51</ele>
        <time>2019-06-10T18:57:58Z</time>
      </trkpt>
      <trkpt lat="49.32856" lon="0.97948">
        <ele>53</ele>
        <time>2019-06-10T18:58:03Z</time>
      </trkpt>
      <trkpt lat="49.32839" lon="0.98001">
        <ele>57</ele>
        <time>2019-06-10T18:58:12Z</time>
      </trkpt>
      <trkpt lat="49.32817" lon="0.98033">
        <ele>58</ele>
        <time>2019-06-10T18:58:19Z</time>
      </trkpt>
      <trkpt lat="49.32815" lon="0.98039">
        <ele>59</ele>
        <time>2019-06-10T18:58:20Z</time>
      </trkpt>
      <trkpt lat="49.32779" lon="0.98074">
        <ele>54</ele>
        <time>2019-06-10T18:58:30Z</time>
      </trkpt>
      <trkpt lat="49.32752" lon="0.98106">
        <ele>51</ele>
        <time>2019-06-10T18:58:38Z</time>
      </trkpt>
      <trkpt lat="49.32743" lon="0.9812">
        <ele>52</ele>
        <time>2019-06-10T18:58:41Z</time>
      </trkpt>
      <trkpt lat="49.32726" lon="0.98136">
        <ele>52</ele>
        <time>2019-06-10T18:58:45Z</time>
      </trkpt>
      <trkpt lat="49.32697" lon="0.9819">
        <ele>56</ele>
        <time>2019-06-10T18:58:56Z</time>
      </trkpt>
      <trkpt lat="49.32685" lon="0.98204">
        <ele>56</ele>
        <time>2019-06-10T18:58:59Z</time>
      </trkpt>
      <trkpt lat="49.32679" lon="0.98207">
        <ele>55</ele>
        <time>2019-06-10T18:59:01Z</time>
      </trkpt>
      <trkpt lat="49.32652" lon="0.9824">
        <ele>56</ele>
        <time>2019-06-10T18:59:09Z</time>
      </trkpt>
      <trkpt lat="49.32647" lon="0.98254">
        <ele>59</ele>
        <time>2019-06-10T18:59:11Z</time>
      </trkpt>
      <trkpt lat="49.3263" lon="0.98268">
        <ele>61</ele>
        <time>2019-06-10T18:59:16Z</time>
      </trkpt>
      <trkpt lat="49.32611" lon="0.98273">
        <ele>60</ele>
        <time>2019-06-10T18:59:20Z</time>
      </trkpt>
      <trkpt lat="49.32592" lon="0.98282">
        <ele>60</ele>
        <time>2019-06-10T18:59:25Z</time>
      </trkpt>
      <trkpt lat="49.3257" lon="0.98287">
        <ele>59</ele>
        <time>2019-06-10T18:59:30Z</time>
      </trkpt>
      <trkpt lat="49.32551" lon="0.98283">
        <ele>56</ele>
        <time>2019-06-10T18:59:35Z</time>
      </trkpt>
      <trkpt lat="49.32537" lon="0.98286">
        <ele>55</ele>
        <time>2019-06-10T18:59:38Z</time>
      </trkpt>
      <trkpt lat="49.32491" lon="0.98303">
        <ele>57</ele>
        <time>2019-06-10T18:59:49Z</time>
      </trkpt>
      <trkpt lat="49.32444" lon="0.9831">
        <ele>58</ele>
        <time>2019-06-10T19:00:00Z</time>
      </trkpt>
      <trkpt lat="49.32407" lon="0.98305">
        <ele>57</ele>
        <time>2019-06-10T19:00:09Z</time>
      </trkpt>
      <trkpt lat="49.32383" lon="0.98291">
        <ele>54</ele>
        <time>2019-06-10T19:00:15Z</time>
      </trkpt>
      <trkpt lat="49.32331" lon="0.98251">
        <ele>49</ele>
        <time>2019-06-10T19:00:28Z</time>
      </trkpt>
      <trkpt lat="49.32317" lon="0.98248">
        <ele>49</ele>
        <time>2019-06-10T19:00:32Z</time>
      </trkpt>
      <trkpt lat="49.32311" lon="0.98259">
        <ele>50</ele>
        <time>2019-06-10T19:00:34Z</time>
      </trkpt>
      <trkpt lat="49.32306" lon="0.98277">
        <ele>52</ele>
        <time>2019-06-10T19:00:37Z</time>
      </trkpt>
      <trkpt lat="49.32301" lon="0.98283">
        <ele>53</ele>
        <time>2019-06-10T19:00:38Z</time>
      </trkpt>
      <trkpt lat="49.32289" lon="0.98289">
        <ele>53</ele>
        <time>2019-06-10T19:00:41Z</time>
      </trkpt>
      <trkpt lat="49.32284" lon="0.983">
        <ele>53</ele>
        <time>2019-06-10T19:00:43Z</time>
      </trkpt>
      <trkpt lat="49.32234" lon="0.98461">
        <ele>57</ele>
        <time>2019-06-10T19:01:10Z</time>
      </trkpt>
      <trkpt lat="49.32214" lon="0.98514">
        <ele>57</ele>
        <time>2019-06-10T19:01:20Z</time>
      </trkpt>
      <trkpt lat="49.322" lon="0.98543">
        <ele>54</ele>
        <time>2019-06-10T19:01:25Z</time>
      </trkpt>
      <trkpt lat="49.32181" lon="0.98568">
        <ele>50</ele>
        <time>2019-06-10T19:01:31Z</time>
      </trkpt>
      <trkpt lat="49.32171" lon="0.98587">
        <ele>47</ele>
        <time>2019-06-10T19:01:35Z</time>
      </trkpt>
      <trkpt lat="49.3217" lon="0.98594">
        <ele>46</ele>
        <time>2019-06-10T19:01:36Z</time>
      </trkpt>
      <trkpt lat="49.32176" lon="0.98606">
        <ele>46</ele>
        <time>2019-06-10T19:01:38Z</time>
      </trkpt>
      <trkpt lat="49.32205" lon="0.98635">
        <ele>49</ele>
        <time>2019-06-10T19:01:46Z</time>
      </trkpt>
      <trkpt lat="49.32234" lon="0.98677">
        <ele>53</ele>
        <time>2019-06-10T19:01:56Z</time>
      </trkpt>
      <trkpt lat="49.3224" lon="0.98697">
        <ele>54</ele>
        <time>2019-06-10T19:01:59Z</time>
      </trkpt>
      <trkpt lat="49.32239" lon="0.98704">
        <ele>54</ele>
        <time>2019-06-10T19:02:00Z</time>
      </trkpt>
      <trkpt lat="49.32234" lon="0.98717">
        <ele>53</ele>
        <time>2019-06-10T19:02:02Z</time>
      </trkpt>
      <trkpt lat="49.32229" lon="0.9872">
        <ele>52</ele>
        <time>2019-06-10T19:02:04Z</time>
      </trkpt>
      <trkpt lat="49.32208" lon="0.98708">
        <ele>46</ele>
        <time>2019-06-10T19:02:09Z</time>
      </trkpt>
      <trkpt lat="49.32192" lon="0.98704">
        <ele>42</ele>
        <time>2019-06-10T19:02:13Z</time>
      </trkpt>
      <trkpt lat="49.32173" lon="0.98723">
        <ele>37</ele>
        <time>2019-06-10T19:02:18Z</time>
      </trkpt>
      <trkpt lat="49.32151" lon="0.98773">
        <ele>34</ele>
        <time>2019-06-10T19:02:27Z</time>
      </trkpt>
      <trkpt lat="49.32149" lon="0.98801">
        <ele>36</ele>
        <time>2019-06-10T19:02:31Z</time>
      </trkpt>
      <trkpt lat="49.3214" lon="0.98854">
        <ele>37</ele>
        <time>2019-06-10T19:02:40Z</time>
      </trkpt>
      <trkpt lat="49.32116" lon="0.98935">
        <ele>33</ele>
        <time>2019-06-10T19:02:53Z</time>
      </trkpt>
      <trkpt lat="49.32106" lon="0.98985">
        <ele>33</ele>
        <time>2019-06-10T19:03:01Z</time>
      </trkpt>
      <trkpt lat="49.32096" lon="0.99009">
        <ele>32</ele>
        <time>2019-06-10T19:03:06Z</time>
      </trkpt>
      <trkpt lat="49.3207" lon="0.99052">
        <ele>29</ele>
        <time>2019-06-10T19:03:14Z</time>
      </trkpt>
      <trkpt lat="49.32064" lon="0.99057">
        <ele>28</ele>
        <time>2019-06-10T19:03:16Z</time>
      </trkpt>
      <trkpt lat="49.32055" lon="0.9906">
        <ele>27</ele>
        <time>2019-06-10T19:03:18Z</time>
      </trkpt>
      <trkpt lat="49.32052" lon="0.99055">
        <ele>26</ele>
        <time>2019-06-10T19:03:19Z</time>
      </trkpt>
      <trkpt lat="49.32058" lon="0.99043">
        <ele>26</ele>
        <time>2019-06-10T19:03:22Z</time>
      </trkpt>
      <trkpt lat="49.32088" lon="0.98949">
        <ele>23</ele>
        <time>2019-06-10T19:03:37Z</time>
      </trkpt>
      <trkpt lat="49.32096" lon="0.98917">
        <ele>24</ele>
        <time>2019-06-10T19:03:43Z</time>
      </trkpt>
      <trkpt lat="49.32111" lon="0.98833">
        <ele>27</ele>
        <time>2019-06-10T19:03:56Z</time>
      </trkpt>
      <trkpt lat="49.32146" lon="0.98728">
        <ele>30</ele>
        <time>2019-06-10T19:04:14Z</time>
      </trkpt>
      <trkpt lat="49.32156" lon="0.98712">
        <ele>33</ele>
        <time>2019-06-10T19:04:17Z</time>
      </trkpt>
      <trkpt lat="49.32188" lon="0.98681">
        <ele>41</ele>
        <time>2019-06-10T19:04:26Z</time>
      </trkpt>
      <trkpt lat="49.32193" lon="0.98668">
        <ele>43</ele>
        <time>2019-06-10T19:04:28Z</time>
      </trkpt>
      <trkpt lat="49.32193" lon="0.9865">
        <ele>44</ele>
        <time>2019-06-10T19:04:31Z</time>
      </trkpt>
      <trkpt lat="49.32184" lon="0.98638">
        <ele>44</ele>
        <time>2019-06-10T19:04:34Z</time>
      </trkpt>
      <trkpt lat="49.32176" lon="0.98633">
        <ele>42</ele>
        <time>2019-06-10T19:04:36Z</time>
      </trkpt>
      <trkpt lat="49.32161" lon="0.98604">
        <ele>43</ele>
        <time>2019-06-10T19:04:42Z</time>
      </trkpt>
      <trkpt lat="49.32146" lon="0.98564">
        <ele>45</ele>
        <time>2019-06-10T19:04:49Z</time>
      </trkpt>
      <trkpt lat="49.3213" lon="0.98541">
        <ele>46</ele>
        <time>2019-06-10T19:04:54Z</time>
      </trkpt>
      <trkpt lat="49.32089" lon="0.98501">
        <ele>48</ele>
        <time>2019-06-10T19:05:05Z</time>
      </trkpt>
      <trkpt lat="49.32079" lon="0.98487">
        <ele>48</ele>
        <time>2019-06-10T19:05:08Z</time>
      </trkpt>
      <trkpt lat="49.32072" lon="0.9847">
        <ele>48</ele>
        <time>2019-06-10T19:05:11Z</time>
      </trkpt>
      <trkpt lat="49.32058" lon="0.98463">
        <ele>48</ele>
        <time>2019-06-10T19:05:15Z</time>
      </trkpt>
      <trkpt lat="49.32022" lon="0.98462">
        <ele>46</ele>
        <time>2019-06-10T19:05:23Z</time>
      </trkpt>
      <trkpt lat="49.32002" lon="0.98471">
        <ele>44</ele>
        <time>2019-06-10T19:05:28Z</time>
      </trkpt>
      <trkpt lat="49.31937" lon="0.98489">
        <ele>41</ele>
        <time>2019-06-10T19:05:43Z</time>
      </trkpt>
      <trkpt lat="49.31892" lon="0.98505">
        <ele>37</ele>
        <time>2019-06-10T19:05:54Z</time>
      </trkpt>
      <trkpt lat="49.31866" lon="0.98502">
        <ele>34</ele>
        <time>2019-06-10T19:06:00Z</time>
      </trkpt>
      <trkpt lat="49.31837" lon="0.9849">
        <ele>30</ele>
        <time>2019-06-10T19:06:07Z</time>
      </trkpt>
      <trkpt lat="49.31834" lon="0.98486">
        <ele>30</ele>
        <time>2019-06-10T19:06:08Z</time>
      </trkpt>
      <trkpt lat="49.31832" lon="0.98473">
        <ele>30</ele>
        <time>2019-06-10T19:06:10Z</time>
      </trkpt>
      <trkpt lat="49.31864" lon="0.98395">
        <ele>32</ele>
        <time>2019-06-10T19:06:24Z</time>
      </trkpt>
      <trkpt lat="49.31906" lon="0.98328">
        <ele>32</ele>
        <time>2019-06-10T19:06:38Z</time>
      </trkpt>
      <trkpt lat="49.31941" lon="0.98279">
        <ele>31</ele>
        <time>2019-06-10T19:06:50Z</time>
      </trkpt>
      <trkpt lat="49.31958" lon="0.98258">
        <ele>30</ele>
        <time>2019-06-10T19:06:55Z</time>
      </trkpt>
      <trkpt lat="49.31995" lon="0.98204">
        <ele>27</ele>
        <time>2019-06-10T19:07:07Z</time>
      </trkpt>
      <trkpt lat="49.32028" lon="0.98164">
        <ele>26</ele>
        <time>2019-06-10T19:07:16Z</time>
      </trkpt>
      <trkpt lat="49.32051" lon="0.98148">
        <ele>28</ele>
        <time>2019-06-10T19:07:22Z</time>
      </trkpt>
      <trkpt lat="49.32061" lon="0.98148">
        <ele>28</ele>
        <time>2019-06-10T19:07:25Z</time>
      </trkpt>
      <trkpt lat="49.32076" lon="0.98129">
        <ele>28</ele>
        <time>2019-06-10T19:07:29Z</time>
      </trkpt>
      <trkpt lat="49.32083" lon="0.98116">
        <ele>28</ele>
        <time>2019-06-10T19:07:32Z</time>
      </trkpt>
      <trkpt lat="49.32115" lon="0.98078">
        <ele>27</ele>
        <time>2019-06-10T19:07:41Z</time>
      </trkpt>
      <trkpt lat="49.32138" lon="0.98062">
        <ele>27</ele>
        <time>2019-06-10T19:07:47Z</time>
      </trkpt>
      <trkpt lat="49.32168" lon="0.98046">
        <ele>26</ele>
        <time>2019-06-10T19:07:54Z</time>
      </trkpt>
      <trkpt lat="49.32208" lon="0.98037">
        <ele>26</ele>
        <time>2019-06-10T19:08:04Z</time>
      </trkpt>
      <trkpt lat="49.32249" lon="0.98048">
        <ele>27</ele>
        <time>2019-06-10T19:08:14Z</time>
      </trkpt>
      <trkpt lat="49.32303" lon="0.98088">
        <ele>25</ele>
        <time>2019-06-10T19:08:28Z</time>
      </trkpt>
      <trkpt lat="49.32317" lon="0.98106">
        <ele>27</ele>
        <time>2019-06-10T19:08:32Z</time>
      </trkpt>
      <trkpt lat="49.32335" lon="0.98122">
        <ele>28</ele>
        <time>2019-06-10T19:08:37Z</time>
      </trkpt>
      <trkpt lat="49.3236" lon="0.98137">
        <ele>29</ele>
        <time>2019-06-10T19:08:43Z</time>
      </trkpt>
      <trkpt lat="49.32382" lon="0.98144">
        <ele>28</ele>
        <time>2019-06-10T19:08:48Z</time>
      </trkpt>
      <trkpt lat="49.32386" lon="0.98142">
        <ele>28</ele>
        <time>2019-06-10T19:08:49Z</time>
      </trkpt>
      <trkpt lat="49.32419" lon="0.98119">
        <ele>25</ele>
        <time>2019-06-10T19:08:58Z</time>
      </trkpt>
      <trkpt lat="49.32426" lon="0.98103">
        <ele>24</ele>
        <time>2019-06-10T19:09:01Z</time>
      </trkpt>
      <trkpt lat="49.32457" lon="0.98075">
        <ele>25</ele>
        <time>2019-06-10T19:09:09Z</time>
      </trkpt>
      <trkpt lat="49.32506" lon="0.98018">
        <ele>31</ele>
        <time>2019-06-10T19:09:23Z</time>
      </trkpt>
      <trkpt lat="49.32534" lon="0.97978">
        <ele>33</ele>
        <time>2019-06-10T19:09:32Z</time>
      </trkpt>
      <trkpt lat="49.32539" lon="0.97976">
        <ele>33</ele>
        <time>2019-06-10T19:09:34Z</time>
      </trkpt>
      <trkpt lat="49.32564" lon="0.97938">
        <ele>35</ele>
        <time>2019-06-10T19:09:42Z</time>
      </trkpt>
      <trkpt lat="49.32574" lon="0.97929">
        <ele>35</ele>
        <time>2019-06-10T19:09:44Z</time>
      </trkpt>
      <trkpt lat="49.3259" lon="0.97908">
        <ele>36</ele>
        <time>2019-06-10T19:09:49Z</time>
      </trkpt>
      <trkpt lat="49.32621" lon="0.97878">
        <ele>34</ele>
        <time>2019-06-10T19:09:58Z</time>
      </trkpt>
      <trkpt lat="49.32639" lon="0.97846">
        <ele>33</ele>
        <time>2019-06-10T19:10:04Z</time>
      </trkpt>
      <trkpt lat="49.32646" lon="0.9781">
        <ele>32</ele>
        <time>2019-06-10T19:10:10Z</time>
      </trkpt>
      <trkpt lat="49.32652" lon="0.97798">
        <ele>31</ele>
        <time>2019-06-10T19:10:12Z</time>
      </trkpt>
      <trkpt lat="49.3268" lon="0.97784">
        <ele>29</ele>
        <time>2019-06-10T19:10:19Z</time>
      </trkpt>
      <trkpt lat="49.32692" lon="0.97767">
        <ele>29</ele>
        <time>2019-06-10T19:10:23Z</time>
      </trkpt>
      <trkpt lat="49.32701" lon="0.97738">
        <ele>29</ele>
        <time>2019-06-10T19:10:28Z</time>
      </trkpt>
      <trkpt lat="49.32702" lon="0.97727">
        <ele>29</ele>
        <time>2019-06-10T19:10:30Z</time>
      </trkpt>
      <trkpt lat="49.327" lon="0.9768">
        <ele>30</ele>
        <time>2019-06-10T19:10:37Z</time>
      </trkpt>
      <trkpt lat="49.32691" lon="0.97648">
        <ele>30</ele>
        <time>2019-06-10T19:10:42Z</time>
      </trkpt>
      <trkpt lat="49.32685" lon="0.97642">
        <ele>29</ele>
        <time>2019-06-10T19:10:44Z</time>
      </trkpt>
      <trkpt lat="49.32651" lon="0.97649">
        <ele>29</ele>
        <time>2019-06-10T19:10:52Z</time>
      </trkpt>
      <trkpt lat="49.32582" lon="0.97655">
        <ele>35</ele>
        <time>2019-06-10T19:11:08Z</time>
      </trkpt>
      <trkpt lat="49.32567" lon="0.97652">
        <ele>36</ele>
        <time>2019-06-10T19:11:12Z</time>
      </trkpt>
      <trkpt lat="49.32564" lon="0.97638">
        <ele>36</ele>
        <time>2019-06-10T19:11:14Z</time>
      </trkpt>
      <trkpt lat="49.32563" lon="0.97613">
        <ele>37</ele>
        <time>2019-06-10T19:11:18Z</time>
      </trkpt>
      <trkpt lat="49.3255" lon="0.97595">
        <ele>39</ele>
        <time>2019-06-10T19:11:22Z</time>
      </trkpt>
      <trkpt lat="49.32534" lon="0.97564">
        <ele>42</ele>
        <time>2019-06-10T19:11:28Z</time>
      </trkpt>
      <trkpt lat="49.32528" lon="0.97559">
        <ele>43</ele>
        <time>2019-06-10T19:11:29Z</time>
      </trkpt>
      <trkpt lat="49.32511" lon="0.97526">
        <ele>47</ele>
        <time>2019-06-10T19:11:36Z</time>
      </trkpt>
      <trkpt lat="49.32512" lon="0.97512">
        <ele>48</ele>
        <time>2019-06-10T19:11:38Z</time>
      </trkpt>
      <trkpt lat="49.32499" lon="0.97482">
        <ele>52</ele>
        <time>2019-06-10T19:11:43Z</time>
      </trkpt>
      <trkpt lat="49.32497" lon="0.97468">
        <ele>53</ele>
        <time>2019-06-10T19:11:45Z</time>
      </trkpt>
      <trkpt lat="49.32491" lon="0.97459">
        <ele>54</ele>
        <time>2019-06-10T19:11:47Z</time>
      </trkpt>
      <trkpt lat="49.32475" lon="0.97447">
        <ele>54</ele>
        <time>2019-06-10T19:11:52Z</time>
      </trkpt>
      <trkpt lat="49.32455" lon="0.97419">
        <ele>56</ele>
        <time>2019-06-10T19:11:58Z</time>
      </trkpt>
      <trkpt lat="49.32437" lon="0.9741">
        <ele>56</ele>
        <time>2019-06-10T19:12:02Z</time>
      </trkpt>
      <trkpt lat="49.32427" lon="0.97401">
        <ele>56</ele>
        <time>2019-06-10T19:12:05Z</time>
      </trkpt>
      <trkpt lat="49.32303" lon="0.97235">
        <ele>74</ele>
        <time>2019-06-10T19:12:43Z</time>
      </trkpt>
      <trkpt lat="49.32276" lon="0.97209">
        <ele>75</ele>
        <time>2019-06-10T19:12:51Z</time>
      </trkpt>
      <trkpt lat="49.32262" lon="0.97201">
        <ele>75</ele>
        <time>2019-06-10T19:12:54Z</time>
      </trkpt>
      <trkpt lat="49.3223" lon="0.97189">
        <ele>73</ele>
        <time>2019-06-10T19:13:02Z</time>
      </trkpt>
      <trkpt lat="49.32222" lon="0.97178">
        <ele>73</ele>
        <time>2019-06-10T19:13:05Z</time>
      </trkpt>
      <trkpt lat="49.3222" lon="0.97157">
        <ele>75</ele>
        <time>2019-06-10T19:13:08Z</time>
      </trkpt>
      <trkpt lat="49.32221" lon="0.97134">
        <ele>76</ele>
        <time>2019-06-10T19:13:11Z</time>
      </trkpt>
      <trkpt lat="49.32229" lon="0.97085">
        <ele>79</ele>
        <time>2019-06-10T19:13:19Z</time>
      </trkpt>
      <trkpt lat="49.32251" lon="0.97024">
        <ele>82</ele>
        <time>2019-06-10T19:13:30Z</time>
      </trkpt>
      <trkpt lat="49.32267" lon="0.96989">
        <ele>85</ele>
        <time>2019-06-10T19:13:36Z</time>
      </trkpt>
      <trkpt lat="49.32304" lon="0.96893">
        <ele>92</ele>
        <time>2019-06-10T19:13:53Z</time>
      </trkpt>
      <trkpt lat="49.32312" lon="0.9687">
        <ele>94</ele>
        <time>2019-06-10T19:13:57Z</time>
      </trkpt>
      <trkpt lat="49.3233" lon="0.96798">
        <ele>100</ele>
        <time>2019-06-10T19:14:09Z</time>
      </trkpt>
      <trkpt lat="49.32338" lon="0.96779">
        <ele>102</ele>
        <time>2019-06-10T19:14:12Z</time>
      </trkpt>
      <trkpt lat="49.3235" lon="0.96762">
        <ele>104</ele>
        <time>2019-06-10T19:14:16Z</time>
      </trkpt>
      <trkpt lat="49.32353" lon="0.96761">
        <ele>104</ele>
        <time>2019-06-10T19:14:17Z</time>
      </trkpt>
      <trkpt lat="49.32357" lon="0.96768">
        <ele>105</ele>
        <time>2019-06-10T19:14:18Z</time>
      </trkpt>
      <trkpt lat="49.32363" lon="0.96811">
        <ele>105</ele>
        <time>2019-06-10T19:14:25Z</time>
      </trkpt>
      <trkpt lat="49.32357" lon="0.96823">
        <ele>104</ele>
        <time>2019-06-10T19:14:27Z</time>
      </trkpt>
      <trkpt lat="49.32351" lon="0.96892">
        <ele>104</ele>
        <time>2019-06-10T19:14:38Z</time>
      </trkpt>
      <trkpt lat="49.3234" lon="0.9692">
        <ele>103</ele>
        <time>2019-06-10T19:14:43Z</time>
      </trkpt>
      <trkpt lat="49.32335" lon="0.96959">
        <ele>104</ele>
        <time>2019-06-10T19:14:49Z</time>
      </trkpt>
      <trkpt lat="49.32338" lon="0.96987">
        <ele>105</ele>
        <time>2019-06-10T19:14:53Z</time>
      </trkpt>
      <trkpt lat="49.32334" lon="0.97038">
        <ele>104</ele>
        <time>2019-06-10T19:15:01Z</time>
      </trkpt>
      <trkpt lat="49.32327" lon="0.97073">
        <ele>101</ele>
        <time>2019-06-10T19:15:07Z</time>
      </trkpt>
      <trkpt lat="49.32334" lon="0.97132">
        <ele>96</ele>
        <time>2019-06-10T19:15:16Z</time>
      </trkpt>
      <trkpt lat="49.32358" lon="0.97186">
        <ele>90</ele>
        <time>2019-06-10T19:15:26Z</time>
      </trkpt>
      <trkpt lat="49.32373" lon="0.9721">
        <ele>88</ele>
        <time>2019-06-10T19:15:31Z</time>
      </trkpt>
      <trkpt lat="49.32391" lon="0.97226">
        <ele>87</ele>
        <time>2019-06-10T19:15:36Z</time>
      </trkpt>
      <trkpt lat="49.3242" lon="0.97265">
        <ele>83</ele>
        <time>2019-06-10T19:15:45Z</time>
      </trkpt>
      <trkpt lat="49.32431" lon="0.97288">
        <ele>78</ele>
        <time>2019-06-10T19:15:49Z</time>
      </trkpt>
      <trkpt lat="49.32442" lon="0.97304">
        <ele>74</ele>
        <time>2019-06-10T19:15:52Z</time>
      </trkpt>
      <trkpt lat="49.32455" lon="0.97339">
        <ele>68</ele>
        <time>2019-06-10T19:15:59Z</time>
      </trkpt>
      <trkpt lat="49.32465" lon="0.97352">
        <ele>66</ele>
        <time>2019-06-10T19:16:02Z</time>
      </trkpt>
      <trkpt lat="49.32471" lon="0.97355">
        <ele>66</ele>
        <time>2019-06-10T19:16:03Z</time>
      </trkpt>
      <trkpt lat="49.32474" lon="0.97354">
        <ele>66</ele>
        <time>2019-06-10T19:16:04Z</time>
      </trkpt>
      <trkpt lat="49.32485" lon="0.97337">
        <ele>68</ele>
        <time>2019-06-10T19:16:07Z</time>
      </trkpt>
      <trkpt lat="49.32511" lon="0.97306">
        <ele>71</ele>
        <time>2019-06-10T19:16:15Z</time>
      </trkpt>
      <trkpt lat="49.32529" lon="0.9728">
        <ele>71</ele>
        <time>2019-06-10T19:16:21Z</time>
      </trkpt>
      <trkpt lat="49.32579" lon="0.97189">
        <ele>74</ele>
        <time>2019-06-10T19:16:39Z</time>
      </trkpt>
      <trkpt lat="49.32582" lon="0.97162">
        <ele>77</ele>
        <time>2019-06-10T19:16:43Z</time>
      </trkpt>
      <trkpt lat="49.32597" lon="0.9714">
        <ele>75</ele>
        <time>2019-06-10T19:16:48Z</time>
      </trkpt>
      <trkpt lat="49.32608" lon="0.97112">
        <ele>76</ele>
        <time>2019-06-10T19:16:53Z</time>
      </trkpt>
      <trkpt lat="49.32595" lon="0.9698">
        <ele>91</ele>
        <time>2019-06-10T19:17:13Z</time>
      </trkpt>
      <trkpt lat="49.32595" lon="0.9691">
        <ele>98</ele>
        <time>2019-06-10T19:17:24Z</time>
      </trkpt>
      <trkpt lat="49.32601" lon="0.96847">
        <ele>104</ele>
        <time>2019-06-10T19:17:34Z</time>
      </trkpt>
      <trkpt lat="49.32595" lon="0.96775">
        <ele>108</ele>
        <time>2019-06-10T19:17:45Z</time>
      </trkpt>
      <trkpt lat="49.32591" lon="0.96739">
        <ele>109</ele>
        <time>2019-06-10T19:17:50Z</time>
      </trkpt>
      <trkpt lat="49.3258" lon="0.96698">
        <ele>109</ele>
        <time>2019-06-10T19:17:57Z</time>
      </trkpt>
      <trkpt lat="49.32568" lon="0.96674">
        <ele>110</ele>
        <time>2019-06-10T19:18:02Z</time>
      </trkpt>
      <trkpt lat="49.32523" lon="0.96617">
        <ele>110</ele>
        <time>2019-06-10T19:18:15Z</time>
      </trkpt>
      <trkpt lat="49.32514" lon="0.96599">
        <ele>110</ele>
        <time>2019-06-10T19:18:19Z</time>
      </trkpt>
      <trkpt lat="49.32512" lon="0.96585">
        <ele>111</ele>
        <time>2019-06-10T19:18:21Z</time>
      </trkpt>
      <trkpt lat="49.32517" lon="0.96549">
        <ele>113</ele>
        <time>2019-06-10T19:18:27Z</time>
      </trkpt>
      <trkpt lat="49.32529" lon="0.96517">
        <ele>116</ele>
        <time>2019-06-10T19:18:32Z</time>
      </trkpt>
      <trkpt lat="49.32543" lon="0.96489">
        <ele>117</ele>
        <time>2019-06-10T19:18:38Z</time>
      </trkpt>
      <trkpt lat="49.32577" lon="0.96454">
        <ele>119</ele>
        <time>2019-06-10T19:18:47Z</time>
      </trkpt>
      <trkpt lat="49.32589" lon="0.96435">
        <ele>121</ele>
        <time>2019-06-10T19:18:51Z</time>
      </trkpt>
      <trkpt lat="49.326" lon="0.96408">
        <ele>121</ele>
        <time>2019-06-10T19:18:56Z</time>
      </trkpt>
      <trkpt lat="49.32611" lon="0.96389">
        <ele>121</ele>
        <time>2019-06-10T19:19:00Z</time>
      </trkpt>
      <trkpt lat="49.32616" lon="0.9639">
        <ele>120</ele>
        <time>2019-06-10T19:19:01Z</time>
      </trkpt>
      <trkpt lat="49.32619" lon="0.96397">
        <ele>120</ele>
        <time>2019-06-10T19:19:02Z</time>
      </trkpt>
      <trkpt lat="49.32636" lon="0.96463">
        <ele>119</ele>
        <time>2019-06-10T19:19:13Z</time>
      </trkpt>
      <trkpt lat="49.3267" lon="0.96568">
        <ele>120</ele>
        <time>2019-06-10T19:19:31Z</time>
      </trkpt>
      <trkpt lat="49.32683" lon="0.96616">
        <ele>120</ele>
        <time>2019-06-10T19:19:39Z</time>
      </trkpt>
      <trkpt lat="49.32713" lon="0.967">
        <ele>118</ele>
        <time>2019-06-10T19:19:53Z</time>
      </trkpt>
      <trkpt lat="49.32719" lon="0.96726">
        <ele>117</ele>
        <time>2019-06-10T19:19:58Z</time>
      </trkpt>
      <trkpt lat="49.32727" lon="0.96749">
        <ele>116</ele>
        <time>2019-06-10T19:20:02Z</time>
      </trkpt>
      <trkpt lat="49.32741" lon="0.96768">
        <ele>115</ele>
        <time>2019-06-10T19:20:06Z</time>
      </trkpt>
      <trkpt lat="49.32767" lon="0.96851">
        <ele>110</ele>
        <time>2019-06-10T19:20:20Z</time>
      </trkpt>
      <trkpt lat="49.32781" lon="0.96863">
        <ele>109</ele>
        <time>2019-06-10T19:20:24Z</time>
      </trkpt>
      <trkpt lat="49.32835" lon="0.96889">
        <ele>105</ele>
        <time>2019-06-10T19:20:37Z</time>
      </trkpt>
      <trkpt lat="49.32844" lon="0.96921">
        <ele>101</ele>
        <time>2019-06-10T19:20:42Z</time>
      </trkpt>
      <trkpt lat="49.32867" lon="0.9694">
        <ele>98</ele>
        <time>2019-06-10T19:20:48Z</time>
      </trkpt>
      <trkpt lat="49.32897" lon="0.96956">
        <ele>96</ele>
        <time>2019-06-10T19:20:56Z</time>
      </trkpt>
      <trkpt lat="49.32906" lon="0.96959">
        <ele>96</ele>
        <time>2019-06-10T19:20:58Z</time>
      </trkpt>
      <trkpt lat="49.32909" lon="0.96957">
        <ele>96</ele>
        <time>2019-06-10T19:20:59Z</time>
      </trkpt>
      <trkpt lat="49.3296" lon="0.96997">
        <ele>93</ele>
        <time>2019-06-10T19:21:12Z</time>
      </trkpt>
      <trkpt lat="49.32981" lon="0.96996">
        <ele>94</ele>
        <time>2019-06-10T19:21:17Z</time>
      </trkpt>
      <trkpt lat="49.33" lon="0.97014">
        <ele>93</ele>
        <time>2019-06-10T19:21:22Z</time>
      </trkpt>
      <trkpt lat="49.33007" lon="0.97029">
        <ele>90</ele>
        <time>2019-06-10T19:21:25Z</time>
      </trkpt>
      <trkpt lat="49.33016" lon="0.97041">
        <ele>87</ele>
        <time>2019-06-10T19:21:28Z</time>
      </trkpt>
      <trkpt lat="49.33022" lon="0.97066">
        <ele>83</ele>
        <time>2019-06-10T19:21:32Z</time>
      </trkpt>
      <trkpt lat="49.3302" lon="0.97076">
        <ele>81</ele>
        <time>2019-06-10T19:21:33Z</time>
      </trkpt>
      <trkpt lat="49.33013" lon="0.97097">
        <ele>77</ele>
        <time>2019-06-10T19:21:37Z</time>
      </trkpt>
      <trkpt lat="49.33005" lon="0.97108">
        <ele>75</ele>
        <time>2019-06-10T19:21:40Z</time>
      </trkpt>
      <trkpt lat="49.32992" lon="0.97116">
        <ele>72</ele>
        <time>2019-06-10T19:21:43Z</time>
      </trkpt>
      <trkpt lat="49.32969" lon="0.97117">
        <ele>69</ele>
        <time>2019-06-10T19:21:48Z</time>
      </trkpt>
      <trkpt lat="49.32971" lon="0.97134">
        <ele>66</ele>
        <time>2019-06-10T19:21:51Z</time>
      </trkpt>
      <trkpt lat="49.32974" lon="0.9714">
        <ele>65</ele>
        <time>2019-06-10T19:21:52Z</time>
      </trkpt>
      <trkpt lat="49.32981" lon="0.97144">
        <ele>64</ele>
        <time>2019-06-10T19:21:54Z</time>
      </trkpt>
      <trkpt lat="49.32993" lon="0.97145">
        <ele>65</ele>
        <time>2019-06-10T19:21:56Z</time>
      </trkpt>
      <trkpt lat="49.33009" lon="0.9715">
        <ele>65</ele>
        <time>2019-06-10T19:22:00Z</time>
      </trkpt>
      <trkpt lat="49.33026" lon="0.9716">
        <ele>63</ele>
        <time>2019-06-10T19:22:05Z</time>
      </trkpt>
      <trkpt lat="49.33088" lon="0.97182">
        <ele>60</ele>
        <time>2019-06-10T19:22:19Z</time>
      </trkpt>
      <trkpt lat="49.33095" lon="0.97187">
        <ele>59</ele>
        <time>2019-06-10T19:22:21Z</time>
      </trkpt>
      <trkpt lat="49.33096" lon="0.97189">
        <ele>58</ele>
        <time>2019-06-10T19:22:22Z</time>
      </trkpt>
      <trkpt lat="49.33091" lon="0.972">
        <ele>56</ele>
        <time>2019-06-10T19:22:24Z</time>
      </trkpt>
      <trkpt lat="49.33081" lon="0.97214">
        <ele>54</ele>
        <time>2019-06-10T19:22:27Z</time>
      </trkpt>
      <trkpt lat="49.33067" lon="0.97213">
        <ele>54</ele>
        <time>2019-06-10T19:22:30Z</time>
      </trkpt>
      <trkpt lat="49.33063" lon="0.97219">
        <ele>53</ele>
        <time>2019-06-10T19:22:31Z</time>
      </trkpt>
      <trkpt lat="49.33062" lon="0.97228">
        <ele>51</ele>
        <time>2019-06-10T19:22:33Z</time>
      </trkpt>
      <trkpt lat="49.33064" lon="0.97236">
        <ele>50</ele>
        <time>2019-06-10T19:22:34Z</time>
      </trkpt>
      <trkpt lat="49.33067" lon="0.97238">
        <ele>50</ele>
        <time>2019-06-10T19:22:35Z</time>
      </trkpt>
      <trkpt lat="49.33072" lon="0.97237">
        <ele>50</ele>
        <time>2019-06-10T19:22:36Z</time>
      </trkpt>
      <trkpt lat="49.33078" lon="0.97242">
        <ele>49</ele>
        <time>2019-06-10T19:22:38Z</time>
      </trkpt>
      <trkpt lat="49.33088" lon="0.97242">
        <ele>49</ele>
        <time>2019-06-10T19:22:40Z</time>
      </trkpt>
      <trkpt lat="49.33102" lon="0.97237">
        <ele>49</ele>
        <time>2019-06-10T19:22:43Z</time>
      </trkpt>
      <trkpt lat="49.33127" lon="0.97216">
        <ele>51</ele>
        <time>2019-06-10T19:22:50Z</time>
      </trkpt>
      <trkpt lat="49.33131" lon="0.97216">
        <ele>51</ele>
        <time>2019-06-10T19:22:51Z</time>
      </trkpt>
      <trkpt lat="49.33124" lon="0.97247">
        <ele>45</ele>
        <time>2019-06-10T19:22:56Z</time>
      </trkpt>
      <trkpt lat="49.33107" lon="0.97285">
        <ele>41</ele>
        <time>2019-06-10T19:23:03Z</time>
      </trkpt>
      <trkpt lat="49.331" lon="0.97299">
        <ele>40</ele>
        <time>2019-06-10T19:23:06Z</time>
      </trkpt>
      <trkpt lat="49.33071" lon="0.97334">
        <ele>36</ele>
        <time>2019-06-10T19:23:14Z</time>
      </trkpt>
      <trkpt lat="49.33066" lon="0.97347">
        <ele>35</ele>
        <time>2019-06-10T19:23:16Z</time>
      </trkpt>
      <trkpt lat="49.33066" lon="0.97363">
        <ele>34</ele>
        <time>2019-06-10T19:23:19Z</time>
      </trkpt>
      <trkpt lat="49.33074" lon="0.97378">
        <ele>33</ele>
        <time>2019-06-10T19:23:22Z</time>
      </trkpt>
      <trkpt lat="49.33079" lon="0.97382">
        <ele>33</ele>
        <time>2019-06-10T19:23:23Z</time>
      </trkpt>
      <trkpt lat="49.33087" lon="0.97379">
        <ele>33</ele>
        <time>2019-06-10T19:23:25Z</time>
      </trkpt>
      <trkpt lat="49.33098" lon="0.97369">
        <ele>34</ele>
        <time>2019-06-10T19:23:28Z</time>
      </trkpt>
      <trkpt lat="49.33107" lon="0.97351">
        <ele>35</ele>
        <time>2019-06-10T19:23:32Z</time>
      </trkpt>
      <trkpt lat="49.33119" lon="0.97339">
        <ele>35</ele>
        <time>2019-06-10T19:23:35Z</time>
      </trkpt>
      <trkpt lat="49.33139" lon="0.97309">
        <ele>37</ele>
        <time>2019-06-10T19:23:41Z</time>
      </trkpt>
      <trkpt lat="49.33191" lon="0.9725">
        <ele>41</ele>
        <time>2019-06-10T19:23:57Z</time>
      </trkpt>
      <trkpt lat="49.33204" lon="0.97219">
        <ele>45</ele>
        <time>2019-06-10T19:24:02Z</time>
      </trkpt>
      <trkpt lat="49.33232" lon="0.97168">
        <ele>48</ele>
        <time>2019-06-10T19:24:12Z</time>
      </trkpt>
      <trkpt lat="49.33248" lon="0.97132">
        <ele>49</ele>
        <time>2019-06-10T19:24:19Z</time>
      </trkpt>
      <trkpt lat="49.33255" lon="0.9711">
        <ele>50</ele>
        <time>2019-06-10T19:24:23Z</time>
      </trkpt>
      <trkpt lat="49.33264" lon="0.97095">
        <ele>50</ele>
        <time>2019-06-10T19:24:26Z</time>
      </trkpt>
      <trkpt lat="49.33284" lon="0.97037">
        <ele>52</ele>
        <time>2019-06-10T19:24:36Z</time>
      </trkpt>
      <trkpt lat="49.33289" lon="0.97001">
        <ele>54</ele>
        <time>2019-06-10T19:24:41Z</time>
      </trkpt>
      <trkpt lat="49.33285" lon="0.96942">
        <ele>56</ele>
        <time>2019-06-10T19:24:50Z</time>
      </trkpt>
      <trkpt lat="49.33287" lon="0.96921">
        <ele>56</ele>
        <time>2019-06-10T19:24:54Z</time>
      </trkpt>
      <trkpt lat="49.33297" lon="0.96881">
        <ele>57</ele>
        <time>2019-06-10T19:25:00Z</time>
      </trkpt>
      <trkpt lat="49.33297" lon="0.96869">
        <ele>57</ele>
        <time>2019-06-10T19:25:02Z</time>
      </trkpt>
      <trkpt lat="49.33299" lon="0.96863">
        <ele>57</ele>
        <time>2019-06-10T19:25:03Z</time>
      </trkpt>
      <trkpt lat="49.33311" lon="0.96861">
        <ele>56</ele>
        <time>2019-06-10T19:25:06Z</time>
      </trkpt>
      <trkpt lat="49.33319" lon="0.96845">
        <ele>55</ele>
        <time>2019-06-10T19:25:09Z</time>
      </trkpt>
      <trkpt lat="49.33334" lon="0.96807">
        <ele>54</ele>
        <time>2019-06-10T19:25:16Z</time>
      </trkpt>
      <trkpt lat="49.33343" lon="0.96775">
        <ele>53</ele>
        <time>2019-06-10T19:25:21Z</time>
      </trkpt>
      <trkpt lat="49.33347" lon="0.96748">
        <ele>53</ele>
        <time>2019-06-10T19:25:25Z</time>
      </trkpt>
      <trkpt lat="49.33346" lon="0.96741">
        <ele>53</ele>
        <time>2019-06-10T19:25:26Z</time>
      </trkpt>
      <trkpt lat="49.33353" lon="0.96722">
        <ele>51</ele>
        <time>2019-06-10T19:25:30Z</time>
      </trkpt>
      <trkpt lat="49.33358" lon="0.96669">
        <ele>50</ele>
        <time>2019-06-10T19:25:38Z</time>
      </trkpt>
      <trkpt lat="49.33364" lon="0.96656">
        <ele>49</ele>
        <time>2019-06-10T19:25:40Z</time>
      </trkpt>
      <trkpt lat="49.33366" lon="0.96596">
        <ele>48</ele>
        <time>2019-06-10T19:25:49Z</time>
      </trkpt>
      <trkpt lat="49.3337" lon="0.96577">
        <ele>47</ele>
        <time>2019-06-10T19:25:52Z</time>
      </trkpt>
      <trkpt lat="49.33379" lon="0.96579">
        <ele>45</ele>
        <time>2019-06-10T19:25:54Z</time>
      </trkpt>
      <trkpt lat="49.33406" lon="0.96577">
        <ele>40</ele>
        <time>2019-06-10T19:26:01Z</time>
      </trkpt>
      <trkpt lat="49.33419" lon="0.96571">
        <ele>38</ele>
        <time>2019-06-10T19:26:04Z</time>
      </trkpt>
      <trkpt lat="49.33434" lon="0.96558">
        <ele>40</ele>
        <time>2019-06-10T19:26:08Z</time>
      </trkpt>
      <trkpt lat="49.33437" lon="0.96549">
        <ele>41</ele>
        <time>2019-06-10T19:26:09Z</time>
      </trkpt>
      <trkpt lat="49.33438" lon="0.96543">
        <ele>41</ele>
        <time>2019-06-10T19:26:10Z</time>
      </trkpt>
      <trkpt lat="49.33431" lon="0.96502">
        <ele>41</ele>
        <time>2019-06-10T19:26:17Z</time>
      </trkpt>
      <trkpt lat="49.33431" lon="0.96483">
        <ele>41</ele>
        <time>2019-06-10T19:26:20Z</time>
      </trkpt>
      <trkpt lat="49.33414" lon="0.96444">
        <ele>39</ele>
        <time>2019-06-10T19:26:27Z</time>
      </trkpt>
      <trkpt lat="49.3341" lon="0.96424">
        <ele>39</ele>
        <time>2019-06-10T19:26:30Z</time>
      </trkpt>
      <trkpt lat="49.33412" lon="0.96369">
        <ele>41</ele>
        <time>2019-06-10T19:26:38Z</time>
      </trkpt>
      <trkpt lat="49.33403" lon="0.96324">
        <ele>44</ele>
        <time>2019-06-10T19:26:46Z</time>
      </trkpt>
      <trkpt lat="49.33406" lon="0.96248">
        <ele>50</ele>
        <time>2019-06-10T19:26:57Z</time>
      </trkpt>
      <trkpt lat="49.33405" lon="0.962">
        <ele>51</ele>
        <time>2019-06-10T19:27:05Z</time>
      </trkpt>
      <trkpt lat="49.33407" lon="0.96187">
        <ele>52</ele>
        <time>2019-06-10T19:27:07Z</time>
      </trkpt>
      <trkpt lat="49.33403" lon="0.96166">
        <ele>52</ele>
        <time>2019-06-10T19:27:10Z</time>
      </trkpt>
      <trkpt lat="49.33401" lon="0.96127">
        <ele>53</ele>
        <time>2019-06-10T19:27:16Z</time>
      </trkpt>
      <trkpt lat="49.3341" lon="0.96031">
        <ele>52</ele>
        <time>2019-06-10T19:27:31Z</time>
      </trkpt>
      <trkpt lat="49.33431" lon="0.96021">
        <ele>55</ele>
        <time>2019-06-10T19:27:36Z</time>
      </trkpt>
      <trkpt lat="49.33444" lon="0.96025">
        <ele>58</ele>
        <time>2019-06-10T19:27:39Z</time>
      </trkpt>
      <trkpt lat="49.33466" lon="0.96006">
        <ele>60</ele>
        <time>2019-06-10T19:27:45Z</time>
      </trkpt>
      <trkpt lat="49.33477" lon="0.96">
        <ele>61</ele>
        <time>2019-06-10T19:27:47Z</time>
      </trkpt>
      <trkpt lat="49.3349" lon="0.95998">
        <ele>63</ele>
        <time>2019-06-10T19:27:51Z</time>
      </trkpt>
      <trkpt lat="49.33499" lon="0.96012">
        <ele>66</ele>
        <time>2019-06-10T19:27:53Z</time>
      </trkpt>
      <trkpt lat="49.33515" lon="0.96025">
        <ele>69</ele>
        <time>2019-06-10T19:27:58Z</time>
      </trkpt>
      <trkpt lat="49.33522" lon="0.96026">
        <ele>69</ele>
        <time>2019-06-10T19:27:59Z</time>
      </trkpt>
      <trkpt lat="49.33529" lon="0.96017">
        <ele>69</ele>
        <time>2019-06-10T19:28:01Z</time>
      </trkpt>
      <trkpt lat="49.33535" lon="0.96">
        <ele>68</ele>
        <time>2019-06-10T19:28:04Z</time>
      </trkpt>
      <trkpt lat="49.33611" lon="0.95835">
        <ele>54</ele>
        <time>2019-06-10T19:28:35Z</time>
      </trkpt>
      <trkpt lat="49.3362" lon="0.95835">
        <ele>55</ele>
        <time>2019-06-10T19:28:37Z</time>
      </trkpt>
      <trkpt lat="49.33663" lon="0.9588">
        <ele>61</ele>
        <time>2019-06-10T19:28:49Z</time>
      </trkpt>
      <trkpt lat="49.3367" lon="0.95879">
        <ele>62</ele>
        <time>2019-06-10T19:28:51Z</time>
      </trkpt>
      <trkpt lat="49.33675" lon="0.95871">
        <ele>61</ele>
        <time>2019-06-10T19:28:53Z</time>
      </trkpt>
      <trkpt lat="49.33679" lon="0.95856">
        <ele>60</ele>
        <time>2019-06-10T19:28:55Z</time>
      </trkpt>
      <trkpt lat="49.33679" lon="0.95865">
        <ele>61</ele>
        <time>2019-06-10T19:28:57Z</time>
      </trkpt>
      <trkpt lat="49.33677" lon="0.95846">
        <ele>59</ele>
        <time>2019-06-10T19:29:00Z</time>
      </trkpt>
      <trkpt lat="49.33665" lon="0.95841">
        <ele>57</ele>
        <time>2019-06-10T19:29:02Z</time>
      </trkpt>
      <trkpt lat="49.33647" lon="0.95827">
        <ele>55</ele>
        <time>2019-06-10T19:29:07Z</time>
      </trkpt>
      <trkpt lat="49.33641" lon="0.95817">
        <ele>55</ele>
        <time>2019-06-10T19:29:09Z</time>
      </trkpt>
      <trkpt lat="49.3364" lon="0.95804">
        <ele>54</ele>
        <time>2019-06-10T19:29:11Z</time>
      </trkpt>
      <trkpt lat="49.33643" lon="0.95724">
        <ele>53</ele>
        <time>2019-06-10T19:29:23Z</time>
      </trkpt>
      <trkpt lat="49.33642" lon="0.95638">
        <ele>53</ele>
        <time>2019-06-10T19:29:36Z</time>
      </trkpt>
      <trkpt lat="49.33647" lon="0.95605">
        <ele>53</ele>
        <time>2019-06-10T19:29:42Z</time>
      </trkpt>
      <trkpt lat="49.33675" lon="0.95476">
        <ele>53</ele>
        <time>2019-06-10T19:30:02Z</time>
      </trkpt>
      <trkpt lat="49.33675" lon="0.95465">
        <ele>53</ele>
        <time>2019-06-10T19:30:04Z</time>
      </trkpt>
      <trkpt lat="49.33685" lon="0.95414">
        <ele>54</ele>
        <time>2019-06-10T19:30:12Z</time>
      </trkpt>
      <trkpt lat="49.33693" lon="0.95398">
        <ele>56</ele>
        <time>2019-06-10T19:30:15Z</time>
      </trkpt>
      <trkpt lat="49.33696" lon="0.95385">
        <ele>57</ele>
        <time>2019-06-10T19:30:17Z</time>
      </trkpt>
      <trkpt lat="49.33697" lon="0.95357">
        <ele>57</ele>
        <time>2019-06-10T19:30:22Z</time>
      </trkpt>
      <trkpt lat="49.33697" lon="0.95335">
        <ele>56</ele>
        <time>2019-06-10T19:30:25Z</time>
      </trkpt>
      <trkpt lat="49.33692" lon="0.95309">
        <ele>56</ele>
        <time>2019-06-10T19:30:29Z</time>
      </trkpt>
      <trkpt lat="49.33683" lon="0.95225">
        <ele>56</ele>
        <time>2019-06-10T19:30:42Z</time>
      </trkpt>
      <trkpt lat="49.33678" lon="0.95132">
        <ele>58</ele>
        <time>2019-06-10T19:30:56Z</time>
      </trkpt>
      <trkpt lat="49.33666" lon="0.95102">
        <ele>54</ele>
        <time>2019-06-10T19:31:02Z</time>
      </trkpt>
      <trkpt lat="49.33656" lon="0.95086">
        <ele>54</ele>
        <time>2019-06-10T19:31:05Z</time>
      </trkpt>
      <trkpt lat="49.33653" lon="0.95051">
        <ele>55</ele>
        <time>2019-06-10T19:31:10Z</time>
      </trkpt>
      <trkpt lat="49.33661" lon="0.95033">
        <ele>57</ele>
        <time>2019-06-10T19:31:14Z</time>
      </trkpt>
      <trkpt lat="49.33679" lon="0.95011">
        <ele>62</ele>
        <time>2019-06-10T19:31:19Z</time>
      </trkpt>
      <trkpt lat="49.337" lon="0.94979">
        <ele>70</ele>
        <time>2019-06-10T19:31:26Z</time>
      </trkpt>
      <trkpt lat="49.33735" lon="0.94949">
        <ele>80</ele>
        <time>2019-06-10T19:31:35Z</time>
      </trkpt>
      <trkpt lat="49.33741" lon="0.94939">
        <ele>82</ele>
        <time>2019-06-10T19:31:37Z</time>
      </trkpt>
      <trkpt lat="49.33771" lon="0.94923">
        <ele>87</ele>
        <time>2019-06-10T19:31:45Z</time>
      </trkpt>
      <trkpt lat="49.3378" lon="0.94921">
        <ele>89</ele>
        <time>2019-06-10T19:31:47Z</time>
      </trkpt>
      <trkpt lat="49.33793" lon="0.94921">
        <ele>90</ele>
        <time>2019-06-10T19:31:50Z</time>
      </trkpt>
      <trkpt lat="49.33804" lon="0.94928">
        <ele>92</ele>
        <time>2019-06-10T19:31:53Z</time>
      </trkpt>
      <trkpt lat="49.33815" lon="0.94931">
        <ele>93</ele>
        <time>2019-06-10T19:31:55Z</time>
      </trkpt>
      <trkpt lat="49.3382" lon="0.9493">
        <ele>94</ele>
        <time>2019-06-10T19:31:56Z</time>
      </trkpt>
      <trkpt lat="49.3384" lon="0.94919">
        <ele>96</ele>
        <time>2019-06-10T19:32:01Z</time>
      </trkpt>
      <trkpt lat="49.33861" lon="0.94899">
        <ele>102</ele>
        <time>2019-06-10T19:32:07Z</time>
      </trkpt>
      <trkpt lat="49.3387" lon="0.94856">
        <ele>107</ele>
        <time>2019-06-10T19:32:14Z</time>
      </trkpt>
      <trkpt lat="49.3387" lon="0.94844">
        <ele>108</ele>
        <time>2019-06-10T19:32:16Z</time>
      </trkpt>
      <trkpt lat="49.33868" lon="0.94835">
        <ele>109</ele>
        <time>2019-06-10T19:32:17Z</time>
      </trkpt>
      <trkpt lat="49.33862" lon="0.94831">
        <ele>109</ele>
        <time>2019-06-10T19:32:19Z</time>
      </trkpt>
      <trkpt lat="49.33853" lon="0.94812">
        <ele>110</ele>
        <time>2019-06-10T19:32:22Z</time>
      </trkpt>
      <trkpt lat="49.33851" lon="0.94775">
        <ele>114</ele>
        <time>2019-06-10T19:32:28Z</time>
      </trkpt>
      <trkpt lat="49.33847" lon="0.94771">
        <ele>114</ele>
        <time>2019-06-10T19:32:29Z</time>
      </trkpt>
      <trkpt lat="49.33843" lon="0.94773">
        <ele>113</ele>
        <time>2019-06-10T19:32:30Z</time>
      </trkpt>
      <trkpt lat="49.33839" lon="0.94768">
        <ele>114</ele>
        <time>2019-06-10T19:32:31Z</time>
      </trkpt>
      <trkpt lat="49.33815" lon="0.94757">
        <ele>113</ele>
        <time>2019-06-10T19:32:37Z</time>
      </trkpt>
      <trkpt lat="49.33773" lon="0.94757">
        <ele>110</ele>
        <time>2019-06-10T19:32:47Z</time>
      </trkpt>
      <trkpt lat="49.33761" lon="0.94762">
        <ele>108</ele>
        <time>2019-06-10T19:32:50Z</time>
      </trkpt>
      <trkpt lat="49.33737" lon="0.94755">
        <ele>106</ele>
        <time>2019-06-10T19:32:56Z</time>
      </trkpt>
      <trkpt lat="49.33723" lon="0.94748">
        <ele>105</ele>
        <time>2019-06-10T19:32:59Z</time>
      </trkpt>
      <trkpt lat="49.33703" lon="0.94733">
        <ele>102</ele>
        <time>2019-06-10T19:33:04Z</time>
      </trkpt>
      <trkpt lat="49.33645" lon="0.94666">
        <ele>97</ele>
        <time>2019-06-10T19:33:21Z</time>
      </trkpt>
      <trkpt lat="49.33624" lon="0.9465">
        <ele>92</ele>
        <time>2019-06-10T19:33:27Z</time>
      </trkpt>
      <trkpt lat="49.33615" lon="0.9464">
        <ele>90</ele>
        <time>2019-06-10T19:33:29Z</time>
      </trkpt>
      <trkpt lat="49.33622" lon="0.94605">
        <ele>94</ele>
        <time>2019-06-10T19:33:35Z</time>
      </trkpt>
      <trkpt lat="49.33631" lon="0.94576">
        <ele>98</ele>
        <time>2019-06-10T19:33:40Z</time>
      </trkpt>
      <trkpt lat="49.33654" lon="0.9452">
        <ele>107</ele>
        <time>2019-06-10T19:33:50Z</time>
      </trkpt>
      <trkpt lat="49.33657" lon="0.94503">
        <ele>109</ele>
        <time>2019-06-10T19:33:53Z</time>
      </trkpt>
      <trkpt lat="49.33666" lon="0.94379">
        <ele>111</ele>
        <time>2019-06-10T19:34:12Z</time>
      </trkpt>
      <trkpt lat="49.33665" lon="0.94337">
        <ele>111</ele>
        <time>2019-06-10T19:34:18Z</time>
      </trkpt>
      <trkpt lat="49.33667" lon="0.94312">
        <ele>112</ele>
        <time>2019-06-10T19:34:22Z</time>
      </trkpt>
      <trkpt lat="49.33663" lon="0.9428">
        <ele>111</ele>
        <time>2019-06-10T19:34:27Z</time>
      </trkpt>
      <trkpt lat="49.33666" lon="0.94211">
        <ele>113</ele>
        <time>2019-06-10T19:34:37Z</time>
      </trkpt>
      <trkpt lat="49.33677" lon="0.94138">
        <ele>118</ele>
        <time>2019-06-10T19:34:49Z</time>
      </trkpt>
      <trkpt lat="49.33696" lon="0.94069">
        <ele>125</ele>
        <time>2019-06-10T19:35:00Z</time>
      </trkpt>
      <trkpt lat="49.33698" lon="0.94037">
        <ele>128</ele>
        <time>2019-06-10T19:35:05Z</time>
      </trkpt>
      <trkpt lat="49.33677" lon="0.93964">
        <ele>130</ele>
        <time>2019-06-10T19:35:17Z</time>
      </trkpt>
      <trkpt lat="49.33678" lon="0.9393">
        <ele>130</ele>
        <time>2019-06-10T19:35:22Z</time>
      </trkpt>
      <trkpt lat="49.33676" lon="0.93915">
        <ele>131</ele>
        <time>2019-06-10T19:35:25Z</time>
      </trkpt>
      <trkpt lat="49.33668" lon="0.93906">
        <ele>130</ele>
        <time>2019-06-10T19:35:27Z</time>
      </trkpt>
      <trkpt lat="49.33657" lon="0.93878">
        <ele>127</ele>
        <time>2019-06-10T19:35:32Z</time>
      </trkpt>
      <trkpt lat="49.33639" lon="0.93846">
        <ele>122</ele>
        <time>2019-06-10T19:35:38Z</time>
      </trkpt>
      <trkpt lat="49.33622" lon="0.93826">
        <ele>117</ele>
        <time>2019-06-10T19:35:43Z</time>
      </trkpt>
      <trkpt lat="49.33607" lon="0.93817">
        <ele>113</ele>
        <time>2019-06-10T19:35:47Z</time>
      </trkpt>
      <trkpt lat="49.33602" lon="0.93808">
        <ele>111</ele>
        <time>2019-06-10T19:35:49Z</time>
      </trkpt>
      <trkpt lat="49.336" lon="0.938">
        <ele>110</ele>
        <time>2019-06-10T19:35:50Z</time>
      </trkpt>
      <trkpt lat="49.33604" lon="0.93779">
        <ele>110</ele>
        <time>2019-06-10T19:35:53Z</time>
      </trkpt>
      <trkpt lat="49.33597" lon="0.93752">
        <ele>107</ele>
        <time>2019-06-10T19:35:58Z</time>
      </trkpt>
      <trkpt lat="49.33603" lon="0.93731">
        <ele>104</ele>
        <time>2019-06-10T19:36:01Z</time>
      </trkpt>
      <trkpt lat="49.33609" lon="0.93694">
        <ele>99</ele>
        <time>2019-06-10T19:36:07Z</time>
      </trkpt>
      <trkpt lat="49.33623" lon="0.93675">
        <ele>97</ele>
        <time>2019-06-10T19:36:12Z</time>
      </trkpt>
      <trkpt lat="49.33634" lon="0.93671">
        <ele>97</ele>
        <time>2019-06-10T19:36:14Z</time>
      </trkpt>
      <trkpt lat="49.33663" lon="0.93677">
        <ele>101</ele>
        <time>2019-06-10T19:36:21Z</time>
      </trkpt>
      <trkpt lat="49.3367" lon="0.93682">
        <ele>103</ele>
        <time>2019-06-10T19:36:23Z</time>
      </trkpt>
      <trkpt lat="49.33691" lon="0.93686">
        <ele>103</ele>
        <time>2019-06-10T19:36:28Z</time>
      </trkpt>
      <trkpt lat="49.33751" lon="0.93706">
        <ele>108</ele>
        <time>2019-06-10T19:36:42Z</time>
      </trkpt>
      <trkpt lat="49.33764" lon="0.93708">
        <ele>111</ele>
        <time>2019-06-10T19:36:45Z</time>
      </trkpt>
      <trkpt lat="49.33807" lon="0.93727">
        <ele>120</ele>
        <time>2019-06-10T19:36:56Z</time>
      </trkpt>
      <trkpt lat="49.33823" lon="0.93727">
        <ele>122</ele>
        <time>2019-06-10T19:36:59Z</time>
      </trkpt>
      <trkpt lat="49.33845" lon="0.93717">
        <ele>123</ele>
        <time>2019-06-10T19:37:05Z</time>
      </trkpt>
      <trkpt lat="49.33869" lon="0.93699">
        <ele>124</ele>
        <time>2019-06-10T19:37:11Z</time>
      </trkpt>
      <trkpt lat="49.33886" lon="0.93641">
        <ele>120</ele>
        <time>2019-06-10T19:37:21Z</time>
      </trkpt>
      <trkpt lat="49.33925" lon="0.93439">
        <ele>109</ele>
        <time>2019-06-10T19:37:53Z</time>
      </trkpt>
      <trkpt lat="49.33969" lon="0.9325">
        <ele>120</ele>
        <time>2019-06-10T19:38:23Z</time>
      </trkpt>
      <trkpt lat="49.3397" lon="0.93225">
        <ele>120</ele>
        <time>2019-06-10T19:38:27Z</time>
      </trkpt>
      <trkpt lat="49.33966" lon="0.93212">
        <ele>119</ele>
        <time>2019-06-10T19:38:29Z</time>
      </trkpt>
      <trkpt lat="49.33954" lon="0.93196">
        <ele>116</ele>
        <time>2019-06-10T19:38:33Z</time>
      </trkpt>
      <trkpt lat="49.33945" lon="0.93177">
        <ele>114</ele>
        <time>2019-06-10T19:38:37Z</time>
      </trkpt>
      <trkpt lat="49.33939" lon="0.93144">
        <ele>112</ele>
        <time>2019-06-10T19:38:42Z</time>
      </trkpt>
      <trkpt lat="49.33925" lon="0.93103">
        <ele>110</ele>
        <time>2019-06-10T19:38:49Z</time>
      </trkpt>
      <trkpt lat="49.33923" lon="0.93086">
        <ele>110</ele>
        <time>2019-06-10T19:38:51Z</time>
      </trkpt>
      <trkpt lat="49.33916" lon="0.93065">
        <ele>110</ele>
        <time>2019-06-10T19:38:55Z</time>
      </trkpt>
      <trkpt lat="49.33917" lon="0.93055">
        <ele>111</ele>
        <time>2019-06-10T19:38:57Z</time>
      </trkpt>
      <trkpt lat="49.33907" lon="0.93019">
        <ele>110</ele>
        <time>2019-06-10T19:39:02Z</time>
      </trkpt>
      <trkpt lat="49.33918" lon="0.92976">
        <ele>116</ele>
        <time>2019-06-10T19:39:10Z</time>
      </trkpt>
      <trkpt lat="49.33918" lon="0.92969">
        <ele>116</ele>
        <time>2019-06-10T19:39:11Z</time>
      </trkpt>
      <trkpt lat="49.33914" lon="0.92955">
        <ele>116</ele>
        <time>2019-06-10T19:39:13Z</time>
      </trkpt>
      <trkpt lat="49.33914" lon="0.92934">
        <ele>117</ele>
        <time>2019-06-10T19:39:16Z</time>
      </trkpt>
      <trkpt lat="49.33898" lon="0.92893">
        <ele>117</ele>
        <time>2019-06-10T19:39:23Z</time>
      </trkpt>
      <trkpt lat="49.33894" lon="0.92869">
        <ele>118</ele>
        <time>2019-06-10T19:39:27Z</time>
      </trkpt>
      <trkpt lat="49.33896" lon="0.92857">
        <ele>119</ele>
        <time>2019-06-10T19:39:29Z</time>
      </trkpt>
      <trkpt lat="49.33894" lon="0.92842">
        <ele>120</ele>
        <time>2019-06-10T19:39:31Z</time>
      </trkpt>
      <trkpt lat="49.33898" lon="0.92824">
        <ele>122</ele>
        <time>2019-06-10T19:39:34Z</time>
      </trkpt>
      <trkpt lat="49.33914" lon="0.92819">
        <ele>124</ele>
        <time>2019-06-10T19:39:38Z</time>
      </trkpt>
      <trkpt lat="49.3392" lon="0.92804">
        <ele>125</ele>
        <time>2019-06-10T19:39:41Z</time>
      </trkpt>
      <trkpt lat="49.33922" lon="0.92788">
        <ele>125</ele>
        <time>2019-06-10T19:39:43Z</time>
      </trkpt>
      <trkpt lat="49.33931" lon="0.92771">
        <ele>125</ele>
        <time>2019-06-10T19:39:47Z</time>
      </trkpt>
      <trkpt lat="49.33957" lon="0.9274">
        <ele>125</ele>
        <time>2019-06-10T19:39:54Z</time>
      </trkpt>
      <trkpt lat="49.33967" lon="0.92723">
        <ele>125</ele>
        <time>2019-06-10T19:39:58Z</time>
      </trkpt>
      <trkpt lat="49.33978" lon="0.92719">
        <ele>124</ele>
        <time>2019-06-10T19:40:00Z</time>
      </trkpt>
      <trkpt lat="49.3399" lon="0.92709">
        <ele>124</ele>
        <time>2019-06-10T19:40:04Z</time>
      </trkpt>
      <trkpt lat="49.33994" lon="0.92695">
        <ele>123</ele>
        <time>2019-06-10T19:40:06Z</time>
      </trkpt>
      <trkpt lat="49.33995" lon="0.92679">
        <ele>123</ele>
        <time>2019-06-10T19:40:08Z</time>
      </trkpt>
      <trkpt lat="49.34001" lon="0.92667">
        <ele>122</ele>
        <time>2019-06-10T19:40:11Z</time>
      </trkpt>
      <trkpt lat="49.34013" lon="0.92654">
        <ele>121</ele>
        <time>2019-06-10T19:40:14Z</time>
      </trkpt>
      <trkpt lat="49.34025" lon="0.92647">
        <ele>121</ele>
        <time>2019-06-10T19:40:17Z</time>
      </trkpt>
      <trkpt lat="49.3404" lon="0.92632">
        <ele>120</ele>
        <time>2019-06-10T19:40:21Z</time>
      </trkpt>
      <trkpt lat="49.34047" lon="0.92618">
        <ele>119</ele>
        <time>2019-06-10T19:40:24Z</time>
      </trkpt>
      <trkpt lat="49.3405" lon="0.92595">
        <ele>118</ele>
        <time>2019-06-10T19:40:28Z</time>
      </trkpt>
      <trkpt lat="49.34037" lon="0.92537">
        <ele>116</ele>
        <time>2019-06-10T19:40:37Z</time>
      </trkpt>
      <trkpt lat="49.33986" lon="0.92438">
        <ele>110</ele>
        <time>2019-06-10T19:40:56Z</time>
      </trkpt>
      <trkpt lat="49.33952" lon="0.92401">
        <ele>111</ele>
        <time>2019-06-10T19:41:06Z</time>
      </trkpt>
      <trkpt lat="49.33935" lon="0.92377">
        <ele>110</ele>
        <time>2019-06-10T19:41:11Z</time>
      </trkpt>
      <trkpt lat="49.33919" lon="0.9234">
        <ele>108</ele>
        <time>2019-06-10T19:41:18Z</time>
      </trkpt>
      <trkpt lat="49.33906" lon="0.92299">
        <ele>106</ele>
        <time>2019-06-10T19:41:25Z</time>
      </trkpt>
      <trkpt lat="49.33897" lon="0.92282">
        <ele>106</ele>
        <time>2019-06-10T19:41:28Z</time>
      </trkpt>
      <trkpt lat="49.33886" lon="0.92241">
        <ele>105</ele>
        <time>2019-06-10T19:41:35Z</time>
      </trkpt>
      <trkpt lat="49.33859" lon="0.92184">
        <ele>102</ele>
        <time>2019-06-10T19:41:46Z</time>
      </trkpt>
      <trkpt lat="49.33829" lon="0.92142">
        <ele>100</ele>
        <time>2019-06-10T19:41:55Z</time>
      </trkpt>
      <trkpt lat="49.33806" lon="0.92116">
        <ele>98</ele>
        <time>2019-06-10T19:42:02Z</time>
      </trkpt>
      <trkpt lat="49.33779" lon="0.92102">
        <ele>98</ele>
        <time>2019-06-10T19:42:08Z</time>
      </trkpt>
      <trkpt lat="49.33752" lon="0.92096">
        <ele>100</ele>
        <time>2019-06-10T19:42:15Z</time>
      </trkpt>
      <trkpt lat="49.33737" lon="0.92084">
        <ele>98</ele>
        <time>2019-06-10T19:42:19Z</time>
      </trkpt>
      <trkpt lat="49.33708" lon="0.92067">
        <ele>95</ele>
        <time>2019-06-10T19:42:26Z</time>
      </trkpt>
      <trkpt lat="49.33681" lon="0.92063">
        <ele>93</ele>
        <time>2019-06-10T19:42:32Z</time>
      </trkpt>
      <trkpt lat="49.33655" lon="0.92064">
        <ele>90</ele>
        <time>2019-06-10T19:42:38Z</time>
      </trkpt>
      <trkpt lat="49.33601" lon="0.92055">
        <ele>81</ele>
        <time>2019-06-10T19:42:51Z</time>
      </trkpt>
      <trkpt lat="49.33591" lon="0.92057">
        <ele>80</ele>
        <time>2019-06-10T19:42:53Z</time>
      </trkpt>
      <trkpt lat="49.33587" lon="0.92062">
        <ele>81</ele>
        <time>2019-06-10T19:42:55Z</time>
      </trkpt>
      <trkpt lat="49.33567" lon="0.92105">
        <ele>84</ele>
        <time>2019-06-10T19:43:03Z</time>
      </trkpt>
      <trkpt lat="49.33543" lon="0.92136">
        <ele>83</ele>
        <time>2019-06-10T19:43:10Z</time>
      </trkpt>
      <trkpt lat="49.33505" lon="0.92176">
        <ele>78</ele>
        <time>2019-06-10T19:43:21Z</time>
      </trkpt>
      <trkpt lat="49.33465" lon="0.92233">
        <ele>77</ele>
        <time>2019-06-10T19:43:34Z</time>
      </trkpt>
      <trkpt lat="49.33433" lon="0.9226">
        <ele>72</ele>
        <time>2019-06-10T19:43:42Z</time>
      </trkpt>
      <trkpt lat="49.33424" lon="0.92262">
        <ele>70</ele>
        <time>2019-06-10T19:43:44Z</time>
      </trkpt>
      <trkpt lat="49.33403" lon="0.92274">
        <ele>67</ele>
        <time>2019-06-10T19:43:49Z</time>
      </trkpt>
      <trkpt lat="49.33398" lon="0.92309">
        <ele>69</ele>
        <time>2019-06-10T19:43:55Z</time>
      </trkpt>
      <trkpt lat="49.33385" lon="0.92332">
        <ele>68</ele>
        <time>2019-06-10T19:44:00Z</time>
      </trkpt>
      <trkpt lat="49.33377" lon="0.92334">
        <ele>67</ele>
        <time>2019-06-10T19:44:01Z</time>
      </trkpt>
      <trkpt lat="49.33369" lon="0.92308">
        <ele>64</ele>
        <time>2019-06-10T19:44:06Z</time>
      </trkpt>
      <trkpt lat="49.33367" lon="0.92308">
        <ele>64</ele>
        <time>2019-06-10T19:44:06Z</time>
      </trkpt>
      <trkpt lat="49.33356" lon="0.92342">
        <ele>63</ele>
        <time>2019-06-10T19:44:12Z</time>
      </trkpt>
      <trkpt lat="49.33352" lon="0.92373">
        <ele>63</ele>
        <time>2019-06-10T19:44:17Z</time>
      </trkpt>
      <trkpt lat="49.33384" lon="0.92428">
        <ele>65</ele>
        <time>2019-06-10T19:44:28Z</time>
      </trkpt>
      <trkpt lat="49.33389" lon="0.92445">
        <ele>64</ele>
        <time>2019-06-10T19:44:31Z</time>
      </trkpt>
      <trkpt lat="49.33382" lon="0.92455">
        <ele>63</ele>
        <time>2019-06-10T19:44:33Z</time>
      </trkpt>
      <trkpt lat="49.33361" lon="0.92472">
        <ele>62</ele>
        <time>2019-06-10T19:44:39Z</time>
      </trkpt>
      <trkpt lat="49.3335" lon="0.92479">
        <ele>62</ele>
        <time>2019-06-10T19:44:41Z</time>
      </trkpt>
      <trkpt lat="49.33336" lon="0.92481">
        <ele>61</ele>
        <time>2019-06-10T19:44:45Z</time>
      </trkpt>
      <trkpt lat="49.33333" lon="0.92488">
        <ele>61</ele>
        <time>2019-06-10T19:44:46Z</time>
      </trkpt>
      <trkpt lat="49.33336" lon="0.92518">
        <ele>62</ele>
        <time>2019-06-10T19:44:51Z</time>
      </trkpt>
      <trkpt lat="49.33325" lon="0.92549">
        <ele>65</ele>
        <time>2019-06-10T19:44:56Z</time>
      </trkpt>
      <trkpt lat="49.33329" lon="0.92574">
        <ele>67</ele>
        <time>2019-06-10T19:45:00Z</time>
      </trkpt>
      <trkpt lat="49.33366" lon="0.92625">
        <ele>69</ele>
        <time>2019-06-10T19:45:12Z</time>
      </trkpt>
      <trkpt lat="49.33381" lon="0.92654">
        <ele>70</ele>
        <time>2019-06-10T19:45:17Z</time>
      </trkpt>
      <trkpt lat="49.33375" lon="0.92697">
        <ele>75</ele>
        <time>2019-06-10T19:45:24Z</time>
      </trkpt>
      <trkpt lat="49.33366" lon="0.9273">
        <ele>79</ele>
        <time>2019-06-10T19:45:29Z</time>
      </trkpt>
      <trkpt lat="49.33344" lon="0.92881">
        <ele>94</ele>
        <time>2019-06-10T19:45:53Z</time>
      </trkpt>
      <trkpt lat="49.33328" lon="0.92957">
        <ele>105</ele>
        <time>2019-06-10T19:46:05Z</time>
      </trkpt>
      <trkpt lat="49.33289" lon="0.93189">
        <ele>105</ele>
        <time>2019-06-10T19:46:41Z</time>
      </trkpt>
      <trkpt lat="49.33292" lon="0.93218">
        <ele>99</ele>
        <time>2019-06-10T19:46:46Z</time>
      </trkpt>
      <trkpt lat="49.33283" lon="0.93289">
        <ele>84</ele>
        <time>2019-06-10T19:46:57Z</time>
      </trkpt>
      <trkpt lat="49.33284" lon="0.93316">
        <ele>76</ele>
        <time>2019-06-10T19:47:01Z</time>
      </trkpt>
      <trkpt lat="49.33274" lon="0.93343">
        <ele>73</ele>
        <time>2019-06-10T19:47:06Z</time>
      </trkpt>
      <trkpt lat="49.3327" lon="0.93364">
        <ele>71</ele>
        <time>2019-06-10T19:47:09Z</time>
      </trkpt>
      <trkpt lat="49.33252" lon="0.93502">
        <ele>62</ele>
        <time>2019-06-10T19:47:31Z</time>
      </trkpt>
      <trkpt lat="49.33244" lon="0.9353">
        <ele>61</ele>
        <time>2019-06-10T19:47:35Z</time>
      </trkpt>
      <trkpt lat="49.33233" lon="0.93603">
        <ele>61</ele>
        <time>2019-06-10T19:47:47Z</time>
      </trkpt>
      <trkpt lat="49.33229" lon="0.93607">
        <ele>62</ele>
        <time>2019-06-10T19:47:48Z</time>
      </trkpt>
      <trkpt lat="49.33219" lon="0.93609">
        <ele>65</ele>
        <time>2019-06-10T19:47:50Z</time>
      </trkpt>
      <trkpt lat="49.33211" lon="0.93608">
        <ele>66</ele>
        <time>2019-06-10T19:47:52Z</time>
      </trkpt>
      <trkpt lat="49.33199" lon="0.93601">
        <ele>68</ele>
        <time>2019-06-10T19:47:55Z</time>
      </trkpt>
      <trkpt lat="49.33149" lon="0.93565">
        <ele>75</ele>
        <time>2019-06-10T19:48:08Z</time>
      </trkpt>
      <trkpt lat="49.33138" lon="0.93545">
        <ele>77</ele>
        <time>2019-06-10T19:48:12Z</time>
      </trkpt>
      <trkpt lat="49.33129" lon="0.93537">
        <ele>78</ele>
        <time>2019-06-10T19:48:14Z</time>
      </trkpt>
      <trkpt lat="49.33113" lon="0.93545">
        <ele>79</ele>
        <time>2019-06-10T19:48:18Z</time>
      </trkpt>
      <trkpt lat="49.33102" lon="0.93557">
        <ele>80</ele>
        <time>2019-06-10T19:48:21Z</time>
      </trkpt>
      <trkpt lat="49.33088" lon="0.93579">
        <ele>81</ele>
        <time>2019-06-10T19:48:26Z</time>
      </trkpt>
      <trkpt lat="49.33044" lon="0.93628">
        <ele>91</ele>
        <time>2019-06-10T19:48:39Z</time>
      </trkpt>
      <trkpt lat="49.33014" lon="0.93658">
        <ele>95</ele>
        <time>2019-06-10T19:48:47Z</time>
      </trkpt>
      <trkpt lat="49.32996" lon="0.93672">
        <ele>97</ele>
        <time>2019-06-10T19:48:52Z</time>
      </trkpt>
      <trkpt lat="49.32972" lon="0.93707">
        <ele>103</ele>
        <time>2019-06-10T19:49:00Z</time>
      </trkpt>
      <trkpt lat="49.3296" lon="0.93719">
        <ele>105</ele>
        <time>2019-06-10T19:49:03Z</time>
      </trkpt>
      <trkpt lat="49.32924" lon="0.93741">
        <ele>107</ele>
        <time>2019-06-10T19:49:12Z</time>
      </trkpt>
      <trkpt lat="49.32898" lon="0.93739">
        <ele>110</ele>
        <time>2019-06-10T19:49:18Z</time>
      </trkpt>
      <trkpt lat="49.32865" lon="0.93748">
        <ele>114</ele>
        <time>2019-06-10T19:49:26Z</time>
      </trkpt>
      <trkpt lat="49.3282" lon="0.9374">
        <ele>119</ele>
        <time>2019-06-10T19:49:36Z</time>
      </trkpt>
      <trkpt lat="49.32807" lon="0.93744">
        <ele>120</ele>
        <time>2019-06-10T19:49:40Z</time>
      </trkpt>
      <trkpt lat="49.32785" lon="0.93741">
        <ele>121</ele>
        <time>2019-06-10T19:49:45Z</time>
      </trkpt>
      <trkpt lat="49.32771" lon="0.93734">
        <ele>122</ele>
        <time>2019-06-10T19:49:48Z</time>
      </trkpt>
      <trkpt lat="49.32758" lon="0.93693">
        <ele>123</ele>
        <time>2019-06-10T19:49:55Z</time>
      </trkpt>
      <trkpt lat="49.32746" lon="0.93688">
        <ele>123</ele>
        <time>2019-06-10T19:49:58Z</time>
      </trkpt>
      <trkpt lat="49.32591" lon="0.93716">
        <ele>116</ele>
        <time>2019-06-10T19:50:34Z</time>
      </trkpt>
      <trkpt lat="49.32507" lon="0.93741">
        <ele>112</ele>
        <time>2019-06-10T19:50:54Z</time>
      </trkpt>
      <trkpt lat="49.32406" lon="0.93759">
        <ele>111</ele>
        <time>2019-06-10T19:51:18Z</time>
      </trkpt>
      <trkpt lat="49.32378" lon="0.93766">
        <ele>110</ele>
        <time>2019-06-10T19:51:25Z</time>
      </trkpt>
      <trkpt lat="49.32355" lon="0.93773">
        <ele>110</ele>
        <time>2019-06-10T19:51:30Z</time>
      </trkpt>
      <trkpt lat="49.32349" lon="0.93779">
        <ele>109</ele>
        <time>2019-06-10T19:51:32Z</time>
      </trkpt>
      <trkpt lat="49.32338" lon="0.93801">
        <ele>109</ele>
        <time>2019-06-10T19:51:36Z</time>
      </trkpt>
      <trkpt lat="49.32343" lon="0.93853">
        <ele>108</ele>
        <time>2019-06-10T19:51:44Z</time>
      </trkpt>
      <trkpt lat="49.32338" lon="0.93909">
        <ele>107</ele>
        <time>2019-06-10T19:51:53Z</time>
      </trkpt>
      <trkpt lat="49.32331" lon="0.93951">
        <ele>107</ele>
        <time>2019-06-10T19:51:59Z</time>
      </trkpt>
      <trkpt lat="49.32333" lon="0.93965">
        <ele>106</ele>
        <time>2019-06-10T19:52:02Z</time>
      </trkpt>
      <trkpt lat="49.32345" lon="0.93997">
        <ele>106</ele>
        <time>2019-06-10T19:52:07Z</time>
      </trkpt>
      <trkpt lat="49.32396" lon="0.94054">
        <ele>108</ele>
        <time>2019-06-10T19:52:22Z</time>
      </trkpt>
      <trkpt lat="49.32454" lon="0.9411">
        <ele>108</ele>
        <time>2019-06-10T19:52:38Z</time>
      </trkpt>
      <trkpt lat="49.32495" lon="0.94132">
        <ele>109</ele>
        <time>2019-06-10T19:52:48Z</time>
      </trkpt>
      <trkpt lat="49.32505" lon="0.94148">
        <ele>109</ele>
        <time>2019-06-10T19:52:51Z</time>
      </trkpt>
      <trkpt lat="49.32518" lon="0.9416">
        <ele>109</ele>
        <time>2019-06-10T19:52:55Z</time>
      </trkpt>
      <trkpt lat="49.32541" lon="0.94189">
        <ele>108</ele>
        <time>2019-06-10T19:53:02Z</time>
      </trkpt>
      <trkpt lat="49.32561" lon="0.94222">
        <ele>109</ele>
        <time>2019-06-10T19:53:09Z</time>
      </trkpt>
      <trkpt lat="49.32584" lon="0.94297">
        <ele>108</ele>
        <time>2019-06-10T19:53:21Z</time>
      </trkpt>
      <trkpt lat="49.32597" lon="0.94313">
        <ele>108</ele>
        <time>2019-06-10T19:53:25Z</time>
      </trkpt>
      <trkpt lat="49.326" lon="0.94339">
        <ele>108</ele>
        <time>2019-06-10T19:53:29Z</time>
      </trkpt>
      <trkpt lat="49.32608" lon="0.94365">
        <ele>108</ele>
        <time>2019-06-10T19:53:34Z</time>
      </trkpt>
      <trkpt lat="49.32624" lon="0.94449">
        <ele>110</ele>
        <time>2019-06-10T19:53:47Z</time>
      </trkpt>
      <trkpt lat="49.32627" lon="0.94555">
        <ele>109</ele>
        <time>2019-06-10T19:54:03Z</time>
      </trkpt>
      <trkpt lat="49.32637" lon="0.94623">
        <ele>109</ele>
        <time>2019-06-10T19:54:14Z</time>
      </trkpt>
      <trkpt lat="49.32656" lon="0.94681">
        <ele>112</ele>
        <time>2019-06-10T19:54:24Z</time>
      </trkpt>
      <trkpt lat="49.32658" lon="0.947">
        <ele>112</ele>
        <time>2019-06-10T19:54:27Z</time>
      </trkpt>
      <trkpt lat="49.32656" lon="0.94712">
        <ele>111</ele>
        <time>2019-06-10T19:54:28Z</time>
      </trkpt>
      <trkpt lat="49.32647" lon="0.94708">
        <ele>110</ele>
        <time>2019-06-10T19:54:31Z</time>
      </trkpt>
      <trkpt lat="49.32592" lon="0.94654">
        <ele>101</ele>
        <time>2019-06-10T19:54:46Z</time>
      </trkpt>
      <trkpt lat="49.32583" lon="0.94649">
        <ele>99</ele>
        <time>2019-06-10T19:54:48Z</time>
      </trkpt>
      <trkpt lat="49.32581" lon="0.94651">
        <ele>99</ele>
        <time>2019-06-10T19:54:49Z</time>
      </trkpt>
      <trkpt lat="49.326" lon="0.94758">
        <ele>100</ele>
        <time>2019-06-10T19:55:06Z</time>
      </trkpt>
      <trkpt lat="49.32601" lon="0.94808">
        <ele>99</ele>
        <time>2019-06-10T19:55:13Z</time>
      </trkpt>
      <trkpt lat="49.32591" lon="0.94847">
        <ele>97</ele>
        <time>2019-06-10T19:55:20Z</time>
      </trkpt>
      <trkpt lat="49.32588" lon="0.94852">
        <ele>97</ele>
        <time>2019-06-10T19:55:21Z</time>
      </trkpt>
      <trkpt lat="49.32577" lon="0.94854">
        <ele>96</ele>
        <time>2019-06-10T19:55:23Z</time>
      </trkpt>
      <trkpt lat="49.32519" lon="0.94833">
        <ele>100</ele>
        <time>2019-06-10T19:55:37Z</time>
      </trkpt>
      <trkpt lat="49.32477" lon="0.94823">
        <ele>104</ele>
        <time>2019-06-10T19:55:47Z</time>
      </trkpt>
      <trkpt lat="49.32463" lon="0.94815">
        <ele>106</ele>
        <time>2019-06-10T19:55:50Z</time>
      </trkpt>
      <trkpt lat="49.32423" lon="0.94813">
        <ele>110</ele>
        <time>2019-06-10T19:56:00Z</time>
      </trkpt>
      <trkpt lat="49.32384" lon="0.94819">
        <ele>112</ele>
        <time>2019-06-10T19:56:09Z</time>
      </trkpt>
      <trkpt lat="49.32358" lon="0.94817">
        <ele>112</ele>
        <time>2019-06-10T19:56:15Z</time>
      </trkpt>
      <trkpt lat="49.3227" lon="0.94806">
        <ele>111</ele>
        <time>2019-06-10T19:56:36Z</time>
      </trkpt>
      <trkpt lat="49.32232" lon="0.94795">
        <ele>110</ele>
        <time>2019-06-10T19:56:45Z</time>
      </trkpt>
      <trkpt lat="49.32211" lon="0.94795">
        <ele>109</ele>
        <time>2019-06-10T19:56:50Z</time>
      </trkpt>
      <trkpt lat="49.32042" lon="0.94743">
        <ele>113</ele>
        <time>2019-06-10T19:57:30Z</time>
      </trkpt>
      <trkpt lat="49.32031" lon="0.94746">
        <ele>113</ele>
        <time>2019-06-10T19:57:32Z</time>
      </trkpt>
      <trkpt lat="49.31999" lon="0.94821">
        <ele>106</ele>
        <time>2019-06-10T19:57:46Z</time>
      </trkpt>
      <trkpt lat="49.31952" lon="0.94945">
        <ele>104</ele>
        <time>2019-06-10T19:58:08Z</time>
      </trkpt>
      <trkpt lat="49.31944" lon="0.94973">
        <ele>105</ele>
        <time>2019-06-10T19:58:13Z</time>
      </trkpt>
      <trkpt lat="49.3195" lon="0.94984">
        <ele>104</ele>
        <time>2019-06-10T19:58:15Z</time>
      </trkpt>
      <trkpt lat="49.31996" lon="0.9499">
        <ele>100</ele>
        <time>2019-06-10T19:58:26Z</time>
      </trkpt>
      <trkpt lat="49.32016" lon="0.95001">
        <ele>100</ele>
        <time>2019-06-10T19:58:31Z</time>
      </trkpt>
      <trkpt lat="49.3204" lon="0.95006">
        <ele>99</ele>
        <time>2019-06-10T19:58:36Z</time>
      </trkpt>
      <trkpt lat="49.3205" lon="0.95017">
        <ele>99</ele>
        <time>2019-06-10T19:58:39Z</time>
      </trkpt>
      <trkpt lat="49.32052" lon="0.95035">
        <ele>99</ele>
        <time>2019-06-10T19:58:42Z</time>
      </trkpt>
      <trkpt lat="49.32049" lon="0.95073">
        <ele>99</ele>
        <time>2019-06-10T19:58:48Z</time>
      </trkpt>
      <trkpt lat="49.32051" lon="0.95104">
        <ele>99</ele>
        <time>2019-06-10T19:58:52Z</time>
      </trkpt>
      <trkpt lat="49.32031" lon="0.95198">
        <ele>99</ele>
        <time>2019-06-10T19:59:07Z</time>
      </trkpt>
      <trkpt lat="49.32026" lon="0.95265">
        <ele>100</ele>
        <time>2019-06-10T19:59:18Z</time>
      </trkpt>
      <trkpt lat="49.3202" lon="0.95311">
        <ele>99</ele>
        <time>2019-06-10T19:59:25Z</time>
      </trkpt>
      <trkpt lat="49.32011" lon="0.95353">
        <ele>97</ele>
        <time>2019-06-10T19:59:32Z</time>
      </trkpt>
      <trkpt lat="49.31991" lon="0.95404">
        <ele>93</ele>
        <time>2019-06-10T19:59:41Z</time>
      </trkpt>
      <trkpt lat="49.31988" lon="0.95429">
        <ele>93</ele>
        <time>2019-06-10T19:59:45Z</time>
      </trkpt>
      <trkpt lat="49.31988" lon="0.95474">
        <ele>92</ele>
        <time>2019-06-10T19:59:51Z</time>
      </trkpt>
      <trkpt lat="49.31982" lon="0.95488">
        <ele>93</ele>
        <time>2019-06-10T19:59:54Z</time>
      </trkpt>
      <trkpt lat="49.31979" lon="0.95505">
        <ele>93</ele>
        <time>2019-06-10T19:59:57Z</time>
      </trkpt>
      <trkpt lat="49.31983" lon="0.95556">
        <ele>92</ele>
        <time>2019-06-10T20:00:04Z</time>
      </trkpt>
      <trkpt lat="49.31984" lon="0.95614">
        <ele>92</ele>
        <time>2019-06-10T20:00:13Z</time>
      </trkpt>
      <trkpt lat="49.31993" lon="0.95694">
        <ele>88</ele>
        <time>2019-06-10T20:00:26Z</time>
      </trkpt>
      <trkpt lat="49.3199" lon="0.95814">
        <ele>84</ele>
        <time>2019-06-10T20:00:44Z</time>
      </trkpt>
      <trkpt lat="49.31992" lon="0.95846">
        <ele>83</ele>
        <time>2019-06-10T20:00:49Z</time>
      </trkpt>
      <trkpt lat="49.31991" lon="0.95948">
        <ele>79</ele>
        <time>2019-06-10T20:01:04Z</time>
      </trkpt>
      <trkpt lat="49.31983" lon="0.96056">
        <ele>82</ele>
        <time>2019-06-10T20:01:21Z</time>
      </trkpt>
      <trkpt lat="49.31981" lon="0.96074">
        <ele>84</ele>
        <time>2019-06-10T20:01:24Z</time>
      </trkpt>
      <trkpt lat="49.31976" lon="0.96091">
        <ele>86</ele>
        <time>2019-06-10T20:01:26Z</time>
      </trkpt>
      <trkpt lat="49.31983" lon="0.96124">
        <ele>87</ele>
        <time>2019-06-10T20:01:32Z</time>
      </trkpt>
      <trkpt lat="49.3198" lon="0.96143">
        <ele>88</ele>
        <time>2019-06-10T20:01:35Z</time>
      </trkpt>
      <trkpt lat="49.31979" lon="0.96203">
        <ele>92</ele>
        <time>2019-06-10T20:01:44Z</time>
      </trkpt>
      <trkpt lat="49.31985" lon="0.96241">
        <ele>93</ele>
        <time>2019-06-10T20:01:50Z</time>
      </trkpt>
      <trkpt lat="49.31993" lon="0.96271">
        <ele>91</ele>
        <time>2019-06-10T20:01:55Z</time>
      </trkpt>
      <trkpt lat="49.32001" lon="0.96275">
        <ele>89</ele>
        <time>2019-06-10T20:01:57Z</time>
      </trkpt>
      <trkpt lat="49.32052" lon="0.96271">
        <ele>80</ele>
        <time>2019-06-10T20:02:09Z</time>
      </trkpt>
      <trkpt lat="49.32129" lon="0.96274">
        <ele>71</ele>
        <time>2019-06-10T20:02:27Z</time>
      </trkpt>
      <trkpt lat="49.32195" lon="0.96284">
        <ele>75</ele>
        <time>2019-06-10T20:02:42Z</time>
      </trkpt>
      <trkpt lat="49.32196" lon="0.96317">
        <ele>76</ele>
        <time>2019-06-10T20:02:47Z</time>
      </trkpt>
      <trkpt lat="49.32184" lon="0.96402">
        <ele>72</ele>
        <time>2019-06-10T20:03:00Z</time>
      </trkpt>
      <trkpt lat="49.3216" lon="0.96528">
        <ele>68</ele>
        <time>2019-06-10T20:03:20Z</time>
      </trkpt>
      <trkpt lat="49.32164" lon="0.96572">
        <ele>69</ele>
        <time>2019-06-10T20:03:27Z</time>
      </trkpt>
      <trkpt lat="49.32164" lon="0.96603">
        <ele>68</ele>
        <time>2019-06-10T20:03:32Z</time>
      </trkpt>
      <trkpt lat="49.3214" lon="0.9662">
        <ele>68</ele>
        <time>2019-06-10T20:03:38Z</time>
      </trkpt>
      <trkpt lat="49.32124" lon="0.96647">
        <ele>68</ele>
        <time>2019-06-10T20:03:44Z</time>
      </trkpt>
      <trkpt lat="49.32113" lon="0.96657">
        <ele>69</ele>
        <time>2019-06-10T20:03:47Z</time>
      </trkpt>
      <trkpt lat="49.32057" lon="0.96699">
        <ele>76</ele>
        <time>2019-06-10T20:04:01Z</time>
      </trkpt>
      <trkpt lat="49.32018" lon="0.96738">
        <ele>85</ele>
        <time>2019-06-10T20:04:12Z</time>
      </trkpt>
      <trkpt lat="49.32011" lon="0.96748">
        <ele>87</ele>
        <time>2019-06-10T20:04:14Z</time>
      </trkpt>
      <trkpt lat="49.31967" lon="0.96787">
        <ele>92</ele>
        <time>2019-06-10T20:04:26Z</time>
      </trkpt>
      <trkpt lat="49.31958" lon="0.96797">
        <ele>93</ele>
        <time>2019-06-10T20:04:29Z</time>
      </trkpt>
      <trkpt lat="49.31945" lon="0.96819">
        <ele>93</ele>
        <time>2019-06-10T20:04:33Z</time>
      </trkpt>
      <trkpt lat="49.31934" lon="0.9683">
        <ele>95</ele>
        <time>2019-06-10T20:04:36Z</time>
      </trkpt>
      <trkpt lat="49.31925" lon="0.96831">
        <ele>96</ele>
        <time>2019-06-10T20:04:38Z</time>
      </trkpt>
      <trkpt lat="49.31903" lon="0.96849">
        <ele>97</ele>
        <time>2019-06-10T20:04:44Z</time>
      </trkpt>
      <trkpt lat="49.31885" lon="0.96874">
        <ele>95</ele>
        <time>2019-06-10T20:04:50Z</time>
      </trkpt>
      <trkpt lat="49.31878" lon="0.96877">
        <ele>94</ele>
        <time>2019-06-10T20:04:52Z</time>
      </trkpt>
      <trkpt lat="49.31872" lon="0.96865">
        <ele>96</ele>
        <time>2019-06-10T20:04:54Z</time>
      </trkpt>
      <trkpt lat="49.31852" lon="0.96857">
        <ele>98</ele>
        <time>2019-06-10T20:04:59Z</time>
      </trkpt>
      <trkpt lat="49.3183" lon="0.96843">
        <ele>101</ele>
        <time>2019-06-10T20:05:04Z</time>
      </trkpt>
      <trkpt lat="49.31818" lon="0.96829">
        <ele>101</ele>
        <time>2019-06-10T20:05:08Z</time>
      </trkpt>
      <trkpt lat="49.31757" lon="0.96728">
        <ele>109</ele>
        <time>2019-06-10T20:05:29Z</time>
      </trkpt>
      <trkpt lat="49.31741" lon="0.96711">
        <ele>109</ele>
        <time>2019-06-10T20:05:33Z</time>
      </trkpt>
      <trkpt lat="49.31731" lon="0.96686">
        <ele>111</ele>
        <time>2019-06-10T20:05:38Z</time>
      </trkpt>
      <trkpt lat="49.31703" lon="0.96647">
        <ele>111</ele>
        <time>2019-06-10T20:05:47Z</time>
      </trkpt>
      <trkpt lat="49.3169" lon="0.96639">
        <ele>110</ele>
        <time>2019-06-10T20:05:50Z</time>
      </trkpt>
      <trkpt lat="49.31678" lon="0.96625">
        <ele>111</ele>
        <time>2019-06-10T20:05:53Z</time>
      </trkpt>
      <trkpt lat="49.31685" lon="0.96589">
        <ele>114</ele>
        <time>2019-06-10T20:05:59Z</time>
      </trkpt>
      <trkpt lat="49.31699" lon="0.96578">
        <ele>114</ele>
        <time>2019-06-10T20:06:03Z</time>
      </trkpt>
      <trkpt lat="49.31707" lon="0.96566">
        <ele>115</ele>
        <time>2019-06-10T20:06:05Z</time>
      </trkpt>
      <trkpt lat="49.31705" lon="0.96554">
        <ele>115</ele>
        <time>2019-06-10T20:06:07Z</time>
      </trkpt>
      <trkpt lat="49.31695" lon="0.96523">
        <ele>116</ele>
        <time>2019-06-10T20:06:13Z</time>
      </trkpt>
      <trkpt lat="49.31684" lon="0.965">
        <ele>117</ele>
        <time>2019-06-10T20:06:17Z</time>
      </trkpt>
      <trkpt lat="49.31672" lon="0.96487">
        <ele>117</ele>
        <time>2019-06-10T20:06:20Z</time>
      </trkpt>
      <trkpt lat="49.31668" lon="0.96479">
        <ele>117</ele>
        <time>2019-06-10T20:06:22Z</time>
      </trkpt>
      <trkpt lat="49.31654" lon="0.96436">
        <ele>118</ele>
        <time>2019-06-10T20:06:29Z</time>
      </trkpt>
      <trkpt lat="49.31647" lon="0.96423">
        <ele>118</ele>
        <time>2019-06-10T20:06:32Z</time>
      </trkpt>
      <trkpt lat="49.31634" lon="0.96386">
        <ele>119</ele>
        <time>2019-06-10T20:06:38Z</time>
      </trkpt>
      <trkpt lat="49.3162" lon="0.96364">
        <ele>119</ele>
        <time>2019-06-10T20:06:43Z</time>
      </trkpt>
      <trkpt lat="49.3159" lon="0.9628">
        <ele>122</ele>
        <time>2019-06-10T20:06:57Z</time>
      </trkpt>
      <trkpt lat="49.31554" lon="0.96236">
        <ele>124</ele>
        <time>2019-06-10T20:07:08Z</time>
      </trkpt>
      <trkpt lat="49.31517" lon="0.9618">
        <ele>126</ele>
        <time>2019-06-10T20:07:20Z</time>
      </trkpt>
      <trkpt lat="49.31496" lon="0.96156">
        <ele>126</ele>
        <time>2019-06-10T20:07:26Z</time>
      </trkpt>
      <trkpt lat="49.31479" lon="0.96131">
        <ele>126</ele>
        <time>2019-06-10T20:07:32Z</time>
      </trkpt>
      <trkpt lat="49.31429" lon="0.96077">
        <ele>127</ele>
        <time>2019-06-10T20:07:46Z</time>
      </trkpt>
      <trkpt lat="49.31413" lon="0.96056">
        <ele>128</ele>
        <time>2019-06-10T20:07:51Z</time>
      </trkpt>
      <trkpt lat="49.3139" lon="0.96013">
        <ele>128</ele>
        <time>2019-06-10T20:08:00Z</time>
      </trkpt>
      <trkpt lat="49.31364" lon="0.95981">
        <ele>128</ele>
        <time>2019-06-10T20:08:07Z</time>
      </trkpt>
      <trkpt lat="49.31351" lon="0.95952">
        <ele>128</ele>
        <time>2019-06-10T20:08:13Z</time>
      </trkpt>
      <trkpt lat="49.3134" lon="0.95939">
        <ele>129</ele>
        <time>2019-06-10T20:08:16Z</time>
      </trkpt>
      <trkpt lat="49.31336" lon="0.95947">
        <ele>128</ele>
        <time>2019-06-10T20:08:17Z</time>
      </trkpt>
      <trkpt lat="49.31333" lon="0.95984">
        <ele>127</ele>
        <time>2019-06-10T20:08:23Z</time>
      </trkpt>
      <trkpt lat="49.31319" lon="0.96033">
        <ele>126</ele>
        <time>2019-06-10T20:08:31Z</time>
      </trkpt>
      <trkpt lat="49.31307" lon="0.96111">
        <ele>126</ele>
        <time>2019-06-10T20:08:44Z</time>
      </trkpt>
      <trkpt lat="49.3129" lon="0.96172">
        <ele>125</ele>
        <time>2019-06-10T20:08:54Z</time>
      </trkpt>
      <trkpt lat="49.31255" lon="0.96242">
        <ele>123</ele>
        <time>2019-06-10T20:09:07Z</time>
      </trkpt>
      <trkpt lat="49.31223" lon="0.96273">
        <ele>120</ele>
        <time>2019-06-10T20:09:16Z</time>
      </trkpt>
      <trkpt lat="49.31195" lon="0.96308">
        <ele>118</ele>
        <time>2019-06-10T20:09:24Z</time>
      </trkpt>
      <trkpt lat="49.31188" lon="0.96314">
        <ele>118</ele>
        <time>2019-06-10T20:09:26Z</time>
      </trkpt>
      <trkpt lat="49.31174" lon="0.96318">
        <ele>117</ele>
        <time>2019-06-10T20:09:30Z</time>
      </trkpt>
      <trkpt lat="49.31171" lon="0.96323">
        <ele>117</ele>
        <time>2019-06-10T20:09:31Z</time>
      </trkpt>
      <trkpt lat="49.31172" lon="0.96339">
        <ele>117</ele>
        <time>2019-06-10T20:09:33Z</time>
      </trkpt>
      <trkpt lat="49.31179" lon="0.96369">
        <ele>118</ele>
        <time>2019-06-10T20:09:38Z</time>
      </trkpt>
      <trkpt lat="49.3118" lon="0.9639">
        <ele>119</ele>
        <time>2019-06-10T20:09:41Z</time>
      </trkpt>
      <trkpt lat="49.31188" lon="0.96415">
        <ele>119</ele>
        <time>2019-06-10T20:09:45Z</time>
      </trkpt>
      <trkpt lat="49.31191" lon="0.96437">
        <ele>119</ele>
        <time>2019-06-10T20:09:49Z</time>
      </trkpt>
      <trkpt lat="49.31211" lon="0.96474">
        <ele>119</ele>
        <time>2019-06-10T20:09:56Z</time>
      </trkpt>
      <trkpt lat="49.3122" lon="0.96499">
        <ele>119</ele>
        <time>2019-06-10T20:10:00Z</time>
      </trkpt>
      <trkpt lat="49.31238" lon="0.96536">
        <ele>119</ele>
        <time>2019-06-10T20:10:07Z</time>
      </trkpt>
      <trkpt lat="49.31255" lon="0.96563">
        <ele>119</ele>
        <time>2019-06-10T20:10:13Z</time>
      </trkpt>
      <trkpt lat="49.31285" lon="0.96581">
        <ele>116</ele>
        <time>2019-06-10T20:10:21Z</time>
      </trkpt>
      <trkpt lat="49.31311" lon="0.96614">
        <ele>116</ele>
        <time>2019-06-10T20:10:29Z</time>
      </trkpt>
      <trkpt lat="49.31329" lon="0.9663">
        <ele>115</ele>
        <time>2019-06-10T20:10:33Z</time>
      </trkpt>
      <trkpt lat="49.31344" lon="0.96639">
        <ele>114</ele>
        <time>2019-06-10T20:10:37Z</time>
      </trkpt>
      <trkpt lat="49.31418" lon="0.96647">
        <ele>109</ele>
        <time>2019-06-10T20:10:54Z</time>
      </trkpt>
      <trkpt lat="49.31451" lon="0.96645">
        <ele>106</ele>
        <time>2019-06-10T20:11:02Z</time>
      </trkpt>
      <trkpt lat="49.31479" lon="0.96665">
        <ele>103</ele>
        <time>2019-06-10T20:11:09Z</time>
      </trkpt>
      <trkpt lat="49.31504" lon="0.96672">
        <ele>101</ele>
        <time>2019-06-10T20:11:15Z</time>
      </trkpt>
      <trkpt lat="49.31527" lon="0.96694">
        <ele>102</ele>
        <time>2019-06-10T20:11:22Z</time>
      </trkpt>
      <trkpt lat="49.31534" lon="0.96706">
        <ele>102</ele>
        <time>2019-06-10T20:11:24Z</time>
      </trkpt>
      <trkpt lat="49.31539" lon="0.96722">
        <ele>102</ele>
        <time>2019-06-10T20:11:27Z</time>
      </trkpt>
      <trkpt lat="49.31536" lon="0.96732">
        <ele>103</ele>
        <time>2019-06-10T20:11:28Z</time>
      </trkpt>
      <trkpt lat="49.31535" lon="0.96761">
        <ele>105</ele>
        <time>2019-06-10T20:11:33Z</time>
      </trkpt>
      <trkpt lat="49.3153" lon="0.96786">
        <ele>107</ele>
        <time>2019-06-10T20:11:37Z</time>
      </trkpt>
      <trkpt lat="49.31502" lon="0.96831">
        <ele>113</ele>
        <time>2019-06-10T20:11:46Z</time>
      </trkpt>
      <trkpt lat="49.31448" lon="0.96907">
        <ele>120</ele>
        <time>2019-06-10T20:12:03Z</time>
      </trkpt>
      <trkpt lat="49.31472" lon="0.96941">
        <ele>118</ele>
        <time>2019-06-10T20:12:11Z</time>
      </trkpt>
      <trkpt lat="49.31501" lon="0.96973">
        <ele>117</ele>
        <time>2019-06-10T20:12:19Z</time>
      </trkpt>
      <trkpt lat="49.31524" lon="0.97012">
        <ele>116</ele>
        <time>2019-06-10T20:12:27Z</time>
      </trkpt>
      <trkpt lat="49.31562" lon="0.97064">
        <ele>115</ele>
        <time>2019-06-10T20:12:39Z</time>
      </trkpt>
      <trkpt lat="49.31578" lon="0.97091">
        <ele>116</ele>
        <time>2019-06-10T20:12:45Z</time>
      </trkpt>
      <trkpt lat="49.31586" lon="0.97094">
        <ele>115</ele>
        <time>2019-06-10T20:12:47Z</time>
      </trkpt>
      <trkpt lat="49.31598" lon="0.97086">
        <ele>113</ele>
        <time>2019-06-10T20:12:50Z</time>
      </trkpt>
      <trkpt lat="49.31603" lon="0.97093">
        <ele>113</ele>
        <time>2019-06-10T20:12:51Z</time>
      </trkpt>
      <trkpt lat="49.31616" lon="0.97094">
        <ele>112</ele>
        <time>2019-06-10T20:12:54Z</time>
      </trkpt>
      <trkpt lat="49.31632" lon="0.97087">
        <ele>110</ele>
        <time>2019-06-10T20:12:58Z</time>
      </trkpt>
      <trkpt lat="49.31662" lon="0.97101">
        <ele>108</ele>
        <time>2019-06-10T20:13:06Z</time>
      </trkpt>
      <trkpt lat="49.31671" lon="0.97096">
        <ele>106</ele>
        <time>2019-06-10T20:13:08Z</time>
      </trkpt>
      <trkpt lat="49.31677" lon="0.97096">
        <ele>104</ele>
        <time>2019-06-10T20:13:09Z</time>
      </trkpt>
      <trkpt lat="49.31706" lon="0.97106">
        <ele>98</ele>
        <time>2019-06-10T20:13:16Z</time>
      </trkpt>
      <trkpt lat="49.3172" lon="0.9714">
        <ele>97</ele>
        <time>2019-06-10T20:13:22Z</time>
      </trkpt>
      <trkpt lat="49.31731" lon="0.97155">
        <ele>95</ele>
        <time>2019-06-10T20:13:26Z</time>
      </trkpt>
      <trkpt lat="49.31739" lon="0.97175">
        <ele>95</ele>
        <time>2019-06-10T20:13:29Z</time>
      </trkpt>
      <trkpt lat="49.3174" lon="0.972">
        <ele>97</ele>
        <time>2019-06-10T20:13:33Z</time>
      </trkpt>
      <trkpt lat="49.31749" lon="0.97209">
        <ele>97</ele>
        <time>2019-06-10T20:13:36Z</time>
      </trkpt>
      <trkpt lat="49.31766" lon="0.9722">
        <ele>94</ele>
        <time>2019-06-10T20:13:40Z</time>
      </trkpt>
      <trkpt lat="49.31772" lon="0.97232">
        <ele>94</ele>
        <time>2019-06-10T20:13:42Z</time>
      </trkpt>
      <trkpt lat="49.31773" lon="0.9725">
        <ele>96</ele>
        <time>2019-06-10T20:13:45Z</time>
      </trkpt>
      <trkpt lat="49.31783" lon="0.97274">
        <ele>96</ele>
        <time>2019-06-10T20:13:49Z</time>
      </trkpt>
      <trkpt lat="49.31799" lon="0.97287">
        <ele>94</ele>
        <time>2019-06-10T20:13:54Z</time>
      </trkpt>
      <trkpt lat="49.31828" lon="0.97334">
        <ele>96</ele>
        <time>2019-06-10T20:14:04Z</time>
      </trkpt>
      <trkpt lat="49.31837" lon="0.97344">
        <ele>95</ele>
        <time>2019-06-10T20:14:06Z</time>
      </trkpt>
      <trkpt lat="49.3186" lon="0.9736">
        <ele>93</ele>
        <time>2019-06-10T20:14:12Z</time>
      </trkpt>
      <trkpt lat="49.31906" lon="0.97418">
        <ele>95</ele>
        <time>2019-06-10T20:14:26Z</time>
      </trkpt>
      <trkpt lat="49.3193" lon="0.97427">
        <ele>93</ele>
        <time>2019-06-10T20:14:32Z</time>
      </trkpt>
      <trkpt lat="49.31937" lon="0.97435">
        <ele>93</ele>
        <time>2019-06-10T20:14:34Z</time>
      </trkpt>
      <trkpt lat="49.3194" lon="0.97449">
        <ele>95</ele>
        <time>2019-06-10T20:14:36Z</time>
      </trkpt>
      <trkpt lat="49.31954" lon="0.97464">
        <ele>95</ele>
        <time>2019-06-10T20:14:40Z</time>
      </trkpt>
      <trkpt lat="49.31968" lon="0.97473">
        <ele>95</ele>
        <time>2019-06-10T20:14:43Z</time>
      </trkpt>
      <trkpt lat="49.3198" lon="0.975">
        <ele>98</ele>
        <time>2019-06-10T20:14:48Z</time>
      </trkpt>
      <trkpt lat="49.32012" lon="0.97504">
        <ele>96</ele>
        <time>2019-06-10T20:14:56Z</time>
      </trkpt>
      <trkpt lat="49.32096" lon="0.97522">
        <ele>90</ele>
        <time>2019-06-10T20:15:16Z</time>
      </trkpt>
      <trkpt lat="49.3212" lon="0.97522">
        <ele>86</ele>
        <time>2019-06-10T20:15:21Z</time>
      </trkpt>
      <trkpt lat="49.3214" lon="0.97518">
        <ele>82</ele>
        <time>2019-06-10T20:15:26Z</time>
      </trkpt>
      <trkpt lat="49.32159" lon="0.97521">
        <ele>80</ele>
        <time>2019-06-10T20:15:31Z</time>
      </trkpt>
      <trkpt lat="49.32171" lon="0.97526">
        <ele>78</ele>
        <time>2019-06-10T20:15:33Z</time>
      </trkpt>
      <trkpt lat="49.32181" lon="0.97532">
        <ele>78</ele>
        <time>2019-06-10T20:15:36Z</time>
      </trkpt>
      <trkpt lat="49.32211" lon="0.97574">
        <ele>79</ele>
        <time>2019-06-10T20:15:45Z</time>
      </trkpt>
      <trkpt lat="49.32235" lon="0.97625">
        <ele>78</ele>
        <time>2019-06-10T20:15:55Z</time>
      </trkpt>
      <trkpt lat="49.32258" lon="0.9764">
        <ele>75</ele>
        <time>2019-06-10T20:16:01Z</time>
      </trkpt>
      <trkpt lat="49.32278" lon="0.97643">
        <ele>72</ele>
        <time>2019-06-10T20:16:06Z</time>
      </trkpt>
      <trkpt lat="49.32289" lon="0.97642">
        <ele>70</ele>
        <time>2019-06-10T20:16:08Z</time>
      </trkpt>
      <trkpt lat="49.32312" lon="0.97635">
        <ele>66</ele>
        <time>2019-06-10T20:16:14Z</time>
      </trkpt>
      <trkpt lat="49.3234" lon="0.97607">
        <ele>59</ele>
        <time>2019-06-10T20:16:21Z</time>
      </trkpt>
      <trkpt lat="49.32348" lon="0.97606">
        <ele>58</ele>
        <time>2019-06-10T20:16:23Z</time>
      </trkpt>
      <trkpt lat="49.32371" lon="0.97624">
        <ele>56</ele>
        <time>2019-06-10T20:16:29Z</time>
      </trkpt>
      <trkpt lat="49.3238" lon="0.97644">
        <ele>56</ele>
        <time>2019-06-10T20:16:33Z</time>
      </trkpt>
      <trkpt lat="49.32383" lon="0.97672">
        <ele>58</ele>
        <time>2019-06-10T20:16:37Z</time>
      </trkpt>
      <trkpt lat="49.32372" lon="0.97675">
        <ele>59</ele>
        <time>2019-06-10T20:16:40Z</time>
      </trkpt>
      <trkpt lat="49.32369" lon="0.97672">
        <ele>59</ele>
        <time>2019-06-10T20:16:41Z</time>
      </trkpt>
      <trkpt lat="49.32356" lon="0.97669">
        <ele>61</ele>
        <time>2019-06-10T20:16:44Z</time>
      </trkpt>
      <trkpt lat="49.3232" lon="0.9772">
        <ele>65</ele>
        <time>2019-06-10T20:16:55Z</time>
      </trkpt>
      <trkpt lat="49.32303" lon="0.97738">
        <ele>65</ele>
        <time>2019-06-10T20:17:00Z</time>
      </trkpt>
      <trkpt lat="49.32289" lon="0.97748">
        <ele>66</ele>
        <time>2019-06-10T20:17:04Z</time>
      </trkpt>
      <trkpt lat="49.3226" lon="0.97763">
        <ele>65</ele>
        <time>2019-06-10T20:17:11Z</time>
      </trkpt>
      <trkpt lat="49.32229" lon="0.97795">
        <ele>62</ele>
        <time>2019-06-10T20:17:20Z</time>
      </trkpt>
      <trkpt lat="49.32211" lon="0.97806">
        <ele>61</ele>
        <time>2019-06-10T20:17:24Z</time>
      </trkpt>
      <trkpt lat="49.32171" lon="0.97841">
        <ele>56</ele>
        <time>2019-06-10T20:17:35Z</time>
      </trkpt>
      <trkpt lat="49.32155" lon="0.97852">
        <ele>56</ele>
        <time>2019-06-10T20:17:39Z</time>
      </trkpt>
      <trkpt lat="49.32134" lon="0.97859">
        <ele>58</ele>
        <time>2019-06-10T20:17:44Z</time>
      </trkpt>
      <trkpt lat="49.3212" lon="0.97871">
        <ele>57</ele>
        <time>2019-06-10T20:17:48Z</time>
      </trkpt>
      <trkpt lat="49.3208" lon="0.97888">
        <ele>59</ele>
        <time>2019-06-10T20:17:57Z</time>
      </trkpt>
      <trkpt lat="49.32056" lon="0.97922">
        <ele>54</ele>
        <time>2019-06-10T20:18:05Z</time>
      </trkpt>
      <trkpt lat="49.32041" lon="0.97934">
        <ele>54</ele>
        <time>2019-06-10T20:18:09Z</time>
      </trkpt>
      <trkpt lat="49.32029" lon="0.97939">
        <ele>55</ele>
        <time>2019-06-10T20:18:12Z</time>
      </trkpt>
      <trkpt lat="49.32003" lon="0.97927">
        <ele>60</ele>
        <time>2019-06-10T20:18:18Z</time>
      </trkpt>
      <trkpt lat="49.31988" lon="0.97914">
        <ele>62</ele>
        <time>2019-06-10T20:18:22Z</time>
      </trkpt>
      <trkpt lat="49.31984" lon="0.97913">
        <ele>63</ele>
        <time>2019-06-10T20:18:23Z</time>
      </trkpt>
      <trkpt lat="49.31943" lon="0.97918">
        <ele>62</ele>
        <time>2019-06-10T20:18:33Z</time>
      </trkpt>
      <trkpt lat="49.31927" lon="0.97923">
        <ele>62</ele>
        <time>2019-06-10T20:18:37Z</time>
      </trkpt>
      <trkpt lat="49.31917" lon="0.97932">
        <ele>61</ele>
        <time>2019-06-10T20:18:39Z</time>
      </trkpt>
      <trkpt lat="49.31883" lon="0.97941">
        <ele>63</ele>
        <time>2019-06-10T20:18:47Z</time>
      </trkpt>
      <trkpt lat="49.31853" lon="0.97975">
        <ele>60</ele>
        <time>2019-06-10T20:18:56Z</time>
      </trkpt>
      <trkpt lat="49.31841" lon="0.97983">
        <ele>59</ele>
        <time>2019-06-10T20:18:59Z</time>
      </trkpt>
      <trkpt lat="49.31831" lon="0.97998">
        <ele>58</ele>
        <time>2019-06-10T20:19:02Z</time>
      </trkpt>
      <trkpt lat="49.31823" lon="0.98036">
        <ele>55</ele>
        <time>2019-06-10T20:19:09Z</time>
      </trkpt>
      <trkpt lat="49.31811" lon="0.98057">
        <ele>55</ele>
        <time>2019-06-10T20:19:13Z</time>
      </trkpt>
      <trkpt lat="49.31792" lon="0.98067">
        <ele>55</ele>
        <time>2019-06-10T20:19:17Z</time>
      </trkpt>
      <trkpt lat="49.31777" lon="0.98082">
        <ele>55</ele>
        <time>2019-06-10T20:19:22Z</time>
      </trkpt>
      <trkpt lat="49.31774" lon="0.98082">
        <ele>55</ele>
        <time>2019-06-10T20:19:22Z</time>
      </trkpt>
      <trkpt lat="49.31758" lon="0.98093">
        <ele>55</ele>
        <time>2019-06-10T20:19:26Z</time>
      </trkpt>
      <trkpt lat="49.31749" lon="0.98123">
        <ele>52</ele>
        <time>2019-06-10T20:19:31Z</time>
      </trkpt>
      <trkpt lat="49.31711" lon="0.98179">
        <ele>53</ele>
        <time>2019-06-10T20:19:44Z</time>
      </trkpt>
      <trkpt lat="49.31707" lon="0.98192">
        <ele>53</ele>
        <time>2019-06-10T20:19:46Z</time>
      </trkpt>
      <trkpt lat="49.31695" lon="0.98209">
        <ele>54</ele>
        <time>2019-06-10T20:19:50Z</time>
      </trkpt>
      <trkpt lat="49.31684" lon="0.98241">
        <ele>55</ele>
        <time>2019-06-10T20:19:55Z</time>
      </trkpt>
      <trkpt lat="49.31669" lon="0.98273">
        <ele>58</ele>
        <time>2019-06-10T20:20:01Z</time>
      </trkpt>
      <trkpt lat="49.31661" lon="0.98282">
        <ele>60</ele>
        <time>2019-06-10T20:20:04Z</time>
      </trkpt>
      <trkpt lat="49.31642" lon="0.98325">
        <ele>63</ele>
        <time>2019-06-10T20:20:11Z</time>
      </trkpt>
      <trkpt lat="49.31638" lon="0.98345">
        <ele>63</ele>
        <time>2019-06-10T20:20:15Z</time>
      </trkpt>
      <trkpt lat="49.31616" lon="0.98374">
        <ele>64</ele>
        <time>2019-06-10T20:20:21Z</time>
      </trkpt>
      <trkpt lat="49.31614" lon="0.98383">
        <ele>64</ele>
        <time>2019-06-10T20:20:23Z</time>
      </trkpt>
      <trkpt lat="49.31617" lon="0.98393">
        <ele>63</ele>
        <time>2019-06-10T20:20:25Z</time>
      </trkpt>
      <trkpt lat="49.31628" lon="0.98407">
        <ele>62</ele>
        <time>2019-06-10T20:20:28Z</time>
      </trkpt>
      <trkpt lat="49.31627" lon="0.98411">
        <ele>61</ele>
        <time>2019-06-10T20:20:29Z</time>
      </trkpt>
      <trkpt lat="49.31617" lon="0.98417">
        <ele>61</ele>
        <time>2019-06-10T20:20:31Z</time>
      </trkpt>
      <trkpt lat="49.31612" lon="0.98425">
        <ele>61</ele>
        <time>2019-06-10T20:20:33Z</time>
      </trkpt>
      <trkpt lat="49.31613" lon="0.98433">
        <ele>60</ele>
        <time>2019-06-10T20:20:34Z</time>
      </trkpt>
      <trkpt lat="49.31622" lon="0.98444">
        <ele>60</ele>
        <time>2019-06-10T20:20:37Z</time>
      </trkpt>
      <trkpt lat="49.31631" lon="0.98479">
        <ele>58</ele>
        <time>2019-06-10T20:20:42Z</time>
      </trkpt>
      <trkpt lat="49.31613" lon="0.98489">
        <ele>57</ele>
        <time>2019-06-10T20:20:47Z</time>
      </trkpt>
      <trkpt lat="49.31602" lon="0.985">
        <ele>57</ele>
        <time>2019-06-10T20:20:50Z</time>
      </trkpt>
      <trkpt lat="49.31595" lon="0.98496">
        <ele>57</ele>
        <time>2019-06-10T20:20:52Z</time>
      </trkpt>
      <trkpt lat="49.31586" lon="0.98483">
        <ele>58</ele>
        <time>2019-06-10T20:20:55Z</time>
      </trkpt>
      <trkpt lat="49.31563" lon="0.98493">
        <ele>57</ele>
        <time>2019-06-10T20:21:00Z</time>
      </trkpt>
      <trkpt lat="49.31548" lon="0.98487">
        <ele>56</ele>
        <time>2019-06-10T20:21:04Z</time>
      </trkpt>
      <trkpt lat="49.31537" lon="0.98479">
        <ele>56</ele>
        <time>2019-06-10T20:21:07Z</time>
      </trkpt>
    </trkseg>
  </trk>
  <trk>
    <name><![CDATA[Trace 1]]></name>
    <trkseg>
      <trkpt lat="49.31535" lon="0.9848">
        <ele>56.8</ele>
      </trkpt>
      <trkpt lat="49.31535" lon="0.9848">
        <ele>56.8</ele>
      </trkpt>
      <trkpt lat="49.31486" lon="0.9851">
        <ele>60.5</ele>
      </trkpt>
      <trkpt lat="49.3149" lon="0.98527">
        <ele>63</ele>
      </trkpt>
      <trkpt lat="49.31509" lon="0.98523">
        <ele>58.6</ele>
      </trkpt>
      <trkpt lat="49.31667" lon="0.98553">
        <ele>49.8</ele>
      </trkpt>
      <trkpt lat="49.31754" lon="0.98763">
        <ele>42</ele>
      </trkpt>
      <trkpt lat="49.31739" lon="0.98592">
        <ele>44.2</ele>
      </trkpt>
      <trkpt lat="49.31756" lon="0.9848">
        <ele>39.4</ele>
      </trkpt>
      <trkpt lat="49.31826" lon="0.98508">
        <ele>31.9</ele>
      </trkpt>
      <trkpt lat="49.31828" lon="0.98467">
        <ele>33.5</ele>
      </trkpt>
      <trkpt lat="49.3189" lon="0.9851">
        <ele>34.3</ele>
      </trkpt>
      <trkpt lat="49.3203" lon="0.98471">
        <ele>46.5</ele>
      </trkpt>
      <trkpt lat="49.32083" lon="0.98471">
        <ele>47.8</ele>
      </trkpt>
      <trkpt lat="49.32167" lon="0.98574">
        <ele>49.5</ele>
      </trkpt>
      <trkpt lat="49.32195" lon="0.98645">
        <ele>47.4</ele>
      </trkpt>
      <trkpt lat="49.32198" lon="0.98669">
        <ele>44.3</ele>
      </trkpt>
      <trkpt lat="49.32153" lon="0.98725">
        <ele>28.9</ele>
      </trkpt>
      <trkpt lat="49.32105" lon="0.98886">
        <ele>29.6</ele>
      </trkpt>
      <trkpt lat="49.32061" lon="0.99042">
        <ele>24.5</ele>
      </trkpt>
    </trkseg>
  </trk>
  <trk>
    <name><![CDATA[Trace 1]]></name>
    <trkseg>
      <trkpt lat="49.32159" lon="0.98933">
        <ele>48</ele>
        <time>2019-06-10T18:14:04Z</time>
      </trkpt>
      <trkpt lat="49.32159" lon="0.98933">
        <ele>48</ele>
        <time>2019-06-10T18:14:04Z</time>
      </trkpt>
      <trkpt lat="49.32168" lon="0.98925">
        <ele>51</ele>
        <time>2019-06-10T18:14:06Z</time>
      </trkpt>
      <trkpt lat="49.3218" lon="0.98886">
        <ele>52</ele>
        <time>2019-06-10T18:14:13Z</time>
      </trkpt>
      <trkpt lat="49.32193" lon="0.98857">
        <ele>54</ele>
        <time>2019-06-10T18:14:18Z</time>
      </trkpt>
      <trkpt lat="49.32194" lon="0.98818">
        <ele>50</ele>
        <time>2019-06-10T18:14:24Z</time>
      </trkpt>
      <trkpt lat="49.322" lon="0.98807">
        <ele>50</ele>
        <time>2019-06-10T18:14:26Z</time>
      </trkpt>
      <trkpt lat="49.32212" lon="0.98799">
        <ele>53</ele>
        <time>2019-06-10T18:14:29Z</time>
      </trkpt>
      <trkpt lat="49.32219" lon="0.98783">
        <ele>53</ele>
        <time>2019-06-10T18:14:32Z</time>
      </trkpt>
      <trkpt lat="49.32227" lon="0.9878">
        <ele>54</ele>
        <time>2019-06-10T18:14:34Z</time>
      </trkpt>
      <trkpt lat="49.32234" lon="0.98788">
        <ele>57</ele>
        <time>2019-06-10T18:14:36Z</time>
      </trkpt>
      <trkpt lat="49.32251" lon="0.98795">
        <ele>62</ele>
        <time>2019-06-10T18:14:40Z</time>
      </trkpt>
      <trkpt lat="49.32274" lon="0.988">
        <ele>67</ele>
        <time>2019-06-10T18:14:46Z</time>
      </trkpt>
      <trkpt lat="49.32287" lon="0.98808">
        <ele>70</ele>
        <time>2019-06-10T18:14:49Z</time>
      </trkpt>
      <trkpt lat="49.32308" lon="0.98844">
        <ele>76</ele>
        <time>2019-06-10T18:14:56Z</time>
      </trkpt>
      <trkpt lat="49.32324" lon="0.98834">
        <ele>78</ele>
        <time>2019-06-10T18:15:00Z</time>
      </trkpt>
      <trkpt lat="49.32322" lon="0.98789">
        <ele>76</ele>
        <time>2019-06-10T18:15:07Z</time>
      </trkpt>
      <trkpt lat="49.32328" lon="0.98738">
        <ele>76</ele>
        <time>2019-06-10T18:15:15Z</time>
      </trkpt>
      <trkpt lat="49.32334" lon="0.98723">
        <ele>77</ele>
        <time>2019-06-10T18:15:18Z</time>
      </trkpt>
      <trkpt lat="49.3236" lon="0.98688">
        <ele>81</ele>
        <time>2019-06-10T18:15:26Z</time>
      </trkpt>
      <trkpt lat="49.32374" lon="0.98673">
        <ele>83</ele>
        <time>2019-06-10T18:15:30Z</time>
      </trkpt>
      <trkpt lat="49.32382" lon="0.98657">
        <ele>83</ele>
        <time>2019-06-10T18:15:33Z</time>
      </trkpt>
      <trkpt lat="49.32412" lon="0.98634">
        <ele>86</ele>
        <time>2019-06-10T18:15:41Z</time>
      </trkpt>
      <trkpt lat="49.32416" lon="0.98625">
        <ele>85</ele>
        <time>2019-06-10T18:15:42Z</time>
      </trkpt>
      <trkpt lat="49.32416" lon="0.98613">
        <ele>84</ele>
        <time>2019-06-10T18:15:44Z</time>
      </trkpt>
      <trkpt lat="49.32419" lon="0.98603">
        <ele>84</ele>
        <time>2019-06-10T18:15:46Z</time>
      </trkpt>
      <trkpt lat="49.32427" lon="0.98597">
        <ele>85</ele>
        <time>2019-06-10T18:15:48Z</time>
      </trkpt>
      <trkpt lat="49.32433" lon="0.98584">
        <ele>85</ele>
        <time>2019-06-10T18:15:50Z</time>
      </trkpt>
      <trkpt lat="49.32435" lon="0.9855">
        <ele>84</ele>
        <time>2019-06-10T18:15:56Z</time>
      </trkpt>
      <trkpt lat="49.32449" lon="0.98468">
        <ele>82</ele>
        <time>2019-06-10T18:16:08Z</time>
      </trkpt>
      <trkpt lat="49.32452" lon="0.98461">
        <ele>82</ele>
        <time>2019-06-10T18:16:10Z</time>
      </trkpt>
      <trkpt lat="49.32472" lon="0.9844">
        <ele>84</ele>
        <time>2019-06-10T18:16:15Z</time>
      </trkpt>
      <trkpt lat="49.32494" lon="0.98393">
        <ele>79</ele>
        <time>2019-06-10T18:16:24Z</time>
      </trkpt>
      <trkpt lat="49.32498" lon="0.98388">
        <ele>78</ele>
        <time>2019-06-10T18:16:25Z</time>
      </trkpt>
      <trkpt lat="49.3252" lon="0.98374">
        <ele>76</ele>
        <time>2019-06-10T18:16:31Z</time>
      </trkpt>
      <trkpt lat="49.3259" lon="0.98379">
        <ele>84</ele>
        <time>2019-06-10T18:16:47Z</time>
      </trkpt>
      <trkpt lat="49.32632" lon="0.98364">
        <ele>86</ele>
        <time>2019-06-10T18:16:57Z</time>
      </trkpt>
      <trkpt lat="49.3265" lon="0.98355">
        <ele>86</ele>
        <time>2019-06-10T18:17:02Z</time>
      </trkpt>
      <trkpt lat="49.32693" lon="0.98327">
        <ele>85</ele>
        <time>2019-06-10T18:17:13Z</time>
      </trkpt>
      <trkpt lat="49.32748" lon="0.98278">
        <ele>87</ele>
        <time>2019-06-10T18:17:28Z</time>
      </trkpt>
      <trkpt lat="49.32774" lon="0.98238">
        <ele>86</ele>
        <time>2019-06-10T18:17:36Z</time>
      </trkpt>
      <trkpt lat="49.32795" lon="0.98182">
        <ele>82</ele>
        <time>2019-06-10T18:17:46Z</time>
      </trkpt>
      <trkpt lat="49.32808" lon="0.98165">
        <ele>83</ele>
        <time>2019-06-10T18:17:50Z</time>
      </trkpt>
      <trkpt lat="49.32843" lon="0.98128">
        <ele>83</ele>
        <time>2019-06-10T18:18:00Z</time>
      </trkpt>
      <trkpt lat="49.32848" lon="0.98126">
        <ele>82</ele>
        <time>2019-06-10T18:18:01Z</time>
      </trkpt>
      <trkpt lat="49.32858" lon="0.98113">
        <ele>79</ele>
        <time>2019-06-10T18:18:04Z</time>
      </trkpt>
      <trkpt lat="49.32862" lon="0.98122">
        <ele>81</ele>
        <time>2019-06-10T18:18:06Z</time>
      </trkpt>
      <trkpt lat="49.32859" lon="0.98172">
        <ele>90</ele>
        <time>2019-06-10T18:18:14Z</time>
      </trkpt>
      <trkpt lat="49.32862" lon="0.98202">
        <ele>94</ele>
        <time>2019-06-10T18:18:18Z</time>
      </trkpt>
      <trkpt lat="49.32855" lon="0.98234">
        <ele>98</ele>
        <time>2019-06-10T18:18:23Z</time>
      </trkpt>
      <trkpt lat="49.32855" lon="0.98263">
        <ele>102</ele>
        <time>2019-06-10T18:18:28Z</time>
      </trkpt>
      <trkpt lat="49.32863" lon="0.98327">
        <ele>109</ele>
        <time>2019-06-10T18:18:38Z</time>
      </trkpt>
      <trkpt lat="49.32869" lon="0.98353">
        <ele>111</ele>
        <time>2019-06-10T18:18:42Z</time>
      </trkpt>
      <trkpt lat="49.32869" lon="0.98391">
        <ele>116</ele>
        <time>2019-06-10T18:18:48Z</time>
      </trkpt>
      <trkpt lat="49.32885" lon="0.98451">
        <ele>120</ele>
        <time>2019-06-10T18:18:57Z</time>
      </trkpt>
      <trkpt lat="49.3289" lon="0.98481">
        <ele>122</ele>
        <time>2019-06-10T18:19:02Z</time>
      </trkpt>
      <trkpt lat="49.32911" lon="0.98522">
        <ele>124</ele>
        <time>2019-06-10T18:19:10Z</time>
      </trkpt>
      <trkpt lat="49.32921" lon="0.98536">
        <ele>124</ele>
        <time>2019-06-10T18:19:13Z</time>
      </trkpt>
      <trkpt lat="49.32929" lon="0.98534">
        <ele>124</ele>
        <time>2019-06-10T18:19:15Z</time>
      </trkpt>
      <trkpt lat="49.32947" lon="0.98539">
        <ele>122</ele>
        <time>2019-06-10T18:19:19Z</time>
      </trkpt>
      <trkpt lat="49.32959" lon="0.98556">
        <ele>123</ele>
        <time>2019-06-10T18:19:23Z</time>
      </trkpt>
      <trkpt lat="49.32969" lon="0.98584">
        <ele>125</ele>
        <time>2019-06-10T18:19:28Z</time>
      </trkpt>
      <trkpt lat="49.32984" lon="0.98662">
        <ele>127</ele>
        <time>2019-06-10T18:19:40Z</time>
      </trkpt>
      <trkpt lat="49.33018" lon="0.9878">
        <ele>127</ele>
        <time>2019-06-10T18:20:00Z</time>
      </trkpt>
      <trkpt lat="49.33023" lon="0.98779">
        <ele>127</ele>
        <time>2019-06-10T18:20:01Z</time>
      </trkpt>
      <trkpt lat="49.33064" lon="0.98744">
        <ele>123</ele>
        <time>2019-06-10T18:20:12Z</time>
      </trkpt>
      <trkpt lat="49.33079" lon="0.98715">
        <ele>121</ele>
        <time>2019-06-10T18:20:18Z</time>
      </trkpt>
      <trkpt lat="49.33091" lon="0.98674">
        <ele>121</ele>
        <time>2019-06-10T18:20:25Z</time>
      </trkpt>
      <trkpt lat="49.33091" lon="0.9861">
        <ele>121</ele>
        <time>2019-06-10T18:20:34Z</time>
      </trkpt>
      <trkpt lat="49.331" lon="0.98529">
        <ele>122</ele>
        <time>2019-06-10T18:20:47Z</time>
      </trkpt>
      <trkpt lat="49.33108" lon="0.98481">
        <ele>122</ele>
        <time>2019-06-10T18:20:55Z</time>
      </trkpt>
      <trkpt lat="49.33108" lon="0.98456">
        <ele>122</ele>
        <time>2019-06-10T18:20:58Z</time>
      </trkpt>
      <trkpt lat="49.331" lon="0.98439">
        <ele>121</ele>
        <time>2019-06-10T18:21:02Z</time>
      </trkpt>
      <trkpt lat="49.33086" lon="0.98379">
        <ele>119</ele>
        <time>2019-06-10T18:21:11Z</time>
      </trkpt>
      <trkpt lat="49.33062" lon="0.98341">
        <ele>114</ele>
        <time>2019-06-10T18:21:19Z</time>
      </trkpt>
      <trkpt lat="49.33044" lon="0.98318">
        <ele>110</ele>
        <time>2019-06-10T18:21:25Z</time>
      </trkpt>
      <trkpt lat="49.33039" lon="0.98295">
        <ele>108</ele>
        <time>2019-06-10T18:21:28Z</time>
      </trkpt>
      <trkpt lat="49.33033" lon="0.98207">
        <ele>102</ele>
        <time>2019-06-10T18:21:42Z</time>
      </trkpt>
      <trkpt lat="49.33035" lon="0.98198">
        <ele>102</ele>
        <time>2019-06-10T18:21:43Z</time>
      </trkpt>
      <trkpt lat="49.33039" lon="0.98193">
        <ele>102</ele>
        <time>2019-06-10T18:21:45Z</time>
      </trkpt>
      <trkpt lat="49.33048" lon="0.98156">
        <ele>102</ele>
        <time>2019-06-10T18:21:51Z</time>
      </trkpt>
      <trkpt lat="49.33053" lon="0.98114">
        <ele>98</ele>
        <time>2019-06-10T18:21:57Z</time>
      </trkpt>
      <trkpt lat="49.33055" lon="0.98108">
        <ele>98</ele>
        <time>2019-06-10T18:21:58Z</time>
      </trkpt>
      <trkpt lat="49.33066" lon="0.98095">
        <ele>100</ele>
        <time>2019-06-10T18:22:01Z</time>
      </trkpt>
      <trkpt lat="49.33077" lon="0.9807">
        <ele>100</ele>
        <time>2019-06-10T18:22:06Z</time>
      </trkpt>
      <trkpt lat="49.33086" lon="0.98059">
        <ele>101</ele>
        <time>2019-06-10T18:22:09Z</time>
      </trkpt>
      <trkpt lat="49.33104" lon="0.98067">
        <ele>102</ele>
        <time>2019-06-10T18:22:13Z</time>
      </trkpt>
      <trkpt lat="49.33117" lon="0.98077">
        <ele>103</ele>
        <time>2019-06-10T18:22:16Z</time>
      </trkpt>
      <trkpt lat="49.3312" lon="0.98078">
        <ele>104</ele>
        <time>2019-06-10T18:22:17Z</time>
      </trkpt>
      <trkpt lat="49.33121" lon="0.98076">
        <ele>103</ele>
        <time>2019-06-10T18:22:17Z</time>
      </trkpt>
      <trkpt lat="49.33125" lon="0.9806">
        <ele>100</ele>
        <time>2019-06-10T18:22:20Z</time>
      </trkpt>
      <trkpt lat="49.33114" lon="0.97987">
        <ele>86</ele>
        <time>2019-06-10T18:22:31Z</time>
      </trkpt>
      <trkpt lat="49.33114" lon="0.97976">
        <ele>84</ele>
        <time>2019-06-10T18:22:33Z</time>
      </trkpt>
      <trkpt lat="49.33119" lon="0.97969">
        <ele>83</ele>
        <time>2019-06-10T18:22:35Z</time>
      </trkpt>
      <trkpt lat="49.33126" lon="0.97965">
        <ele>82</ele>
        <time>2019-06-10T18:22:36Z</time>
      </trkpt>
      <trkpt lat="49.33136" lon="0.97971">
        <ele>82</ele>
        <time>2019-06-10T18:22:39Z</time>
      </trkpt>
      <trkpt lat="49.33165" lon="0.98045">
        <ele>96</ele>
        <time>2019-06-10T18:22:52Z</time>
      </trkpt>
      <trkpt lat="49.33185" lon="0.98089">
        <ele>100</ele>
        <time>2019-06-10T18:23:00Z</time>
      </trkpt>
      <trkpt lat="49.33199" lon="0.98099">
        <ele>98</ele>
        <time>2019-06-10T18:23:04Z</time>
      </trkpt>
      <trkpt lat="49.33222" lon="0.98106">
        <ele>93</ele>
        <time>2019-06-10T18:23:09Z</time>
      </trkpt>
      <trkpt lat="49.33235" lon="0.98124">
        <ele>92</ele>
        <time>2019-06-10T18:23:13Z</time>
      </trkpt>
      <trkpt lat="49.33303" lon="0.98247">
        <ele>92</ele>
        <time>2019-06-10T18:23:38Z</time>
      </trkpt>
      <trkpt lat="49.33308" lon="0.9826">
        <ele>93</ele>
        <time>2019-06-10T18:23:40Z</time>
      </trkpt>
      <trkpt lat="49.33326" lon="0.98287">
        <ele>93</ele>
        <time>2019-06-10T18:23:46Z</time>
      </trkpt>
      <trkpt lat="49.33342" lon="0.98297">
        <ele>93</ele>
        <time>2019-06-10T18:23:50Z</time>
      </trkpt>
      <trkpt lat="49.33381" lon="0.9828">
        <ele>93</ele>
        <time>2019-06-10T18:24:00Z</time>
      </trkpt>
      <trkpt lat="49.33392" lon="0.98279">
        <ele>93</ele>
        <time>2019-06-10T18:24:02Z</time>
      </trkpt>
      <trkpt lat="49.33401" lon="0.98281">
        <ele>94</ele>
        <time>2019-06-10T18:24:04Z</time>
      </trkpt>
      <trkpt lat="49.33442" lon="0.98299">
        <ele>98</ele>
        <time>2019-06-10T18:24:14Z</time>
      </trkpt>
      <trkpt lat="49.33473" lon="0.98308">
        <ele>102</ele>
        <time>2019-06-10T18:24:22Z</time>
      </trkpt>
      <trkpt lat="49.33512" lon="0.98331">
        <ele>105</ele>
        <time>2019-06-10T18:24:31Z</time>
      </trkpt>
      <trkpt lat="49.33527" lon="0.98335">
        <ele>107</ele>
        <time>2019-06-10T18:24:35Z</time>
      </trkpt>
      <trkpt lat="49.33538" lon="0.98344">
        <ele>109</ele>
        <time>2019-06-10T18:24:38Z</time>
      </trkpt>
      <trkpt lat="49.33551" lon="0.9836">
        <ele>111</ele>
        <time>2019-06-10T18:24:42Z</time>
      </trkpt>
      <trkpt lat="49.3357" lon="0.98375">
        <ele>114</ele>
        <time>2019-06-10T18:24:47Z</time>
      </trkpt>
      <trkpt lat="49.33579" lon="0.98379">
        <ele>115</ele>
        <time>2019-06-10T18:24:49Z</time>
      </trkpt>
      <trkpt lat="49.33587" lon="0.98379">
        <ele>115</ele>
        <time>2019-06-10T18:24:51Z</time>
      </trkpt>
      <trkpt lat="49.33599" lon="0.98364">
        <ele>117</ele>
        <time>2019-06-10T18:24:54Z</time>
      </trkpt>
      <trkpt lat="49.33594" lon="0.98342">
        <ele>117</ele>
        <time>2019-06-10T18:24:58Z</time>
      </trkpt>
      <trkpt lat="49.33599" lon="0.98315">
        <ele>118</ele>
        <time>2019-06-10T18:25:02Z</time>
      </trkpt>
      <trkpt lat="49.33597" lon="0.98302">
        <ele>119</ele>
        <time>2019-06-10T18:25:04Z</time>
      </trkpt>
      <trkpt lat="49.3359" lon="0.9828">
        <ele>119</ele>
        <time>2019-06-10T18:25:08Z</time>
      </trkpt>
      <trkpt lat="49.33575" lon="0.9826">
        <ele>118</ele>
        <time>2019-06-10T18:25:13Z</time>
      </trkpt>
      <trkpt lat="49.33541" lon="0.98225">
        <ele>115</ele>
        <time>2019-06-10T18:25:22Z</time>
      </trkpt>
      <trkpt lat="49.3353" lon="0.982">
        <ele>115</ele>
        <time>2019-06-10T18:25:27Z</time>
      </trkpt>
      <trkpt lat="49.3353" lon="0.98169">
        <ele>117</ele>
        <time>2019-06-10T18:25:32Z</time>
      </trkpt>
      <trkpt lat="49.33525" lon="0.98128">
        <ele>117</ele>
        <time>2019-06-10T18:25:38Z</time>
      </trkpt>
      <trkpt lat="49.33524" lon="0.9809">
        <ele>117</ele>
        <time>2019-06-10T18:25:44Z</time>
      </trkpt>
      <trkpt lat="49.33528" lon="0.98087">
        <ele>117</ele>
        <time>2019-06-10T18:25:45Z</time>
      </trkpt>
      <trkpt lat="49.33543" lon="0.98088">
        <ele>119</ele>
        <time>2019-06-10T18:25:48Z</time>
      </trkpt>
      <trkpt lat="49.33555" lon="0.98094">
        <ele>121</ele>
        <time>2019-06-10T18:25:51Z</time>
      </trkpt>
      <trkpt lat="49.33566" lon="0.98108">
        <ele>122</ele>
        <time>2019-06-10T18:25:55Z</time>
      </trkpt>
      <trkpt lat="49.33584" lon="0.98139">
        <ele>124</ele>
        <time>2019-06-10T18:26:01Z</time>
      </trkpt>
      <trkpt lat="49.33596" lon="0.98168">
        <ele>125</ele>
        <time>2019-06-10T18:26:06Z</time>
      </trkpt>
      <trkpt lat="49.33619" lon="0.98159">
        <ele>128</ele>
        <time>2019-06-10T18:26:12Z</time>
      </trkpt>
      <trkpt lat="49.33632" lon="0.98159">
        <ele>129</ele>
        <time>2019-06-10T18:26:15Z</time>
      </trkpt>
      <trkpt lat="49.33646" lon="0.98149">
        <ele>131</ele>
        <time>2019-06-10T18:26:18Z</time>
      </trkpt>
      <trkpt lat="49.33654" lon="0.9813">
        <ele>132</ele>
        <time>2019-06-10T18:26:22Z</time>
      </trkpt>
      <trkpt lat="49.33666" lon="0.98115">
        <ele>134</ele>
        <time>2019-06-10T18:26:25Z</time>
      </trkpt>
      <trkpt lat="49.33597" lon="0.97894">
        <ele>121</ele>
        <time>2019-06-10T18:27:03Z</time>
      </trkpt>
      <trkpt lat="49.33597" lon="0.97846">
        <ele>116</ele>
        <time>2019-06-10T18:27:10Z</time>
      </trkpt>
      <trkpt lat="49.33608" lon="0.97824">
        <ele>115</ele>
        <time>2019-06-10T18:27:14Z</time>
      </trkpt>
      <trkpt lat="49.3362" lon="0.97813">
        <ele>115</ele>
        <time>2019-06-10T18:27:17Z</time>
      </trkpt>
      <trkpt lat="49.33656" lon="0.97814">
        <ele>117</ele>
        <time>2019-06-10T18:27:26Z</time>
      </trkpt>
      <trkpt lat="49.33722" lon="0.97827">
        <ele>116</ele>
        <time>2019-06-10T18:27:41Z</time>
      </trkpt>
      <trkpt lat="49.33742" lon="0.97826">
        <ele>115</ele>
        <time>2019-06-10T18:27:46Z</time>
      </trkpt>
      <trkpt lat="49.33755" lon="0.97811">
        <ele>114</ele>
        <time>2019-06-10T18:27:50Z</time>
      </trkpt>
      <trkpt lat="49.3377" lon="0.97759">
        <ele>113</ele>
        <time>2019-06-10T18:27:58Z</time>
      </trkpt>
      <trkpt lat="49.33768" lon="0.97725">
        <ele>114</ele>
        <time>2019-06-10T18:28:04Z</time>
      </trkpt>
      <trkpt lat="49.33763" lon="0.97711">
        <ele>114</ele>
        <time>2019-06-10T18:28:06Z</time>
      </trkpt>
      <trkpt lat="49.33751" lon="0.97691">
        <ele>113</ele>
        <time>2019-06-10T18:28:10Z</time>
      </trkpt>
      <trkpt lat="49.33724" lon="0.97664">
        <ele>111</ele>
        <time>2019-06-10T18:28:18Z</time>
      </trkpt>
      <trkpt lat="49.33717" lon="0.97649">
        <ele>110</ele>
        <time>2019-06-10T18:28:21Z</time>
      </trkpt>
      <trkpt lat="49.33713" lon="0.97616">
        <ele>109</ele>
        <time>2019-06-10T18:28:26Z</time>
      </trkpt>
      <trkpt lat="49.33715" lon="0.97599">
        <ele>109</ele>
        <time>2019-06-10T18:28:28Z</time>
      </trkpt>
      <trkpt lat="49.33716" lon="0.97596">
        <ele>108.7</ele>
      </trkpt>
      <trkpt lat="49.33653" lon="0.97279">
        <ele>103.3</ele>
      </trkpt>
      <trkpt lat="49.33673" lon="0.97137">
        <ele>106.7</ele>
      </trkpt>
      <trkpt lat="49.33712" lon="0.96989">
        <ele>102.4</ele>
      </trkpt>
      <trkpt lat="49.33719" lon="0.96897">
        <ele>100.7</ele>
      </trkpt>
      <trkpt lat="49.33722" lon="0.96781">
        <ele>100.3</ele>
      </trkpt>
      <trkpt lat="49.33719" lon="0.96592">
        <ele>99</ele>
      </trkpt>
      <trkpt lat="49.3373" lon="0.96474">
        <ele>97.8</ele>
      </trkpt>
      <trkpt lat="49.33759" lon="0.96443">
        <ele>104.8</ele>
      </trkpt>
      <trkpt lat="49.33786" lon="0.96387">
        <ele>103.4</ele>
      </trkpt>
      <trkpt lat="49.33826" lon="0.96345">
        <ele>102.1</ele>
      </trkpt>
      <trkpt lat="49.33826" lon="0.96289">
        <ele>95.3</ele>
      </trkpt>
      <trkpt lat="49.33825" lon="0.96287">
        <ele>95</ele>
      </trkpt>
    </trkseg>
  </trk>
</gpx>